ASY54 LCRA-EGXW
Flight info
| Callsign | ASY54 |
|---|---|
| Flight time | N/A |
| Altitude | 28000 |
| Route | MEZUS DCT EVENO UM601 EXELA UN127 LMO UN128 RUGAS DCT RAMAP DCT VIBOP DCT NIDLO DCT SUBEN DCT ANELA L604 RELBI L602 RKN L980 TENLI L602 BERGI L60 OTBED |
| Aircraft | C30J/M-SDE2E3FGRY/H |
Departure
| Time | 2026-04-22 06:21 |
|---|---|
| Airport | RAF Akrotiri (LCRA) |
Arrival
| Time | N/A |
|---|---|
| Airport | RAF Waddington (EGXW) |
| Time | Latitude | Longitude | Altitude | Speed | Heading |
|---|---|---|---|---|---|
| 2026-04-22 05:45 | 34.58118 | 33.00049 | 85 ft | 0 kts | 300° |
| 2026-04-22 06:16 | 34.58121 | 33.00027 | 89 ft | 5 kts | 271° |
| 2026-04-22 06:16 | 34.58108 | 33.00005 | 89 ft | 2 kts | 198° |
| 2026-04-22 06:16 | 34.58093 | 33.00012 | 89 ft | 8 kts | 156° |
| 2026-04-22 06:17 | 34.58057 | 33.00064 | 87 ft | 8 kts | 124° |
| 2026-04-22 06:17 | 34.58034 | 33.00115 | 86 ft | 10 kts | 115° |
| 2026-04-22 06:17 | 34.58031 | 33.00187 | 89 ft | 11 kts | 76° |
| 2026-04-22 06:17 | 34.58068 | 33.00244 | 89 ft | 7 kts | 45° |
| 2026-04-22 06:18 | 34.58115 | 33.00298 | 88 ft | 9 kts | 41° |
| 2026-04-22 06:18 | 34.58164 | 33.00326 | 87 ft | 10 kts | 10° |
| 2026-04-22 06:18 | 34.58227 | 33.00303 | 88 ft | 9 kts | 331° |
| 2026-04-22 06:18 | 34.58291 | 33.00261 | 86 ft | 11 kts | 331° |
| 2026-04-22 06:19 | 34.58344 | 33.00227 | 86 ft | 8 kts | 333° |
| 2026-04-22 06:19 | 34.58400 | 33.00192 | 88 ft | 8 kts | 332° |
| 2026-04-22 06:19 | 34.58455 | 33.00157 | 89 ft | 10 kts | 334° |
| 2026-04-22 06:19 | 34.58525 | 33.00121 | 88 ft | 8 kts | 346° |
| 2026-04-22 06:20 | 34.58572 | 33.00144 | 89 ft | 5 kts | 28° |
| 2026-04-22 06:20 | 34.58602 | 33.00161 | 88 ft | 9 kts | 23° |
| 2026-04-22 06:20 | 34.58665 | 33.00160 | 88 ft | 8 kts | 326° |
| 2026-04-22 06:20 | 34.58683 | 33.00111 | 89 ft | 17 kts | 288° |
| 2026-04-22 06:21 | 34.58810 | 32.99631 | 84 ft | 100 kts | 287° |
| 2026-04-22 06:21 | 34.59079 | 32.98610 | 187 ft | 145 kts | 287° |
| 2026-04-22 06:21 | 34.59399 | 32.97351 | 464 ft | 166 kts | 287° |
| 2026-04-22 06:21 | 34.59716 | 32.95953 | 893 ft | 179 kts | 279° |
| 2026-04-22 06:22 | 34.59721 | 32.94360 | 1271 ft | 196 kts | 262° |
| 2026-04-22 06:22 | 34.59452 | 32.92711 | 1838 ft | 202 kts | 257° |
| 2026-04-22 06:22 | 34.59116 | 32.91035 | 2451 ft | 205 kts | 256° |
| 2026-04-22 06:22 | 34.58774 | 32.89388 | 3048 ft | 207 kts | 256° |
| 2026-04-22 06:23 | 34.58433 | 32.87722 | 3652 ft | 210 kts | 256° |
| 2026-04-22 06:23 | 34.58083 | 32.85994 | 4268 ft | 212 kts | 256° |
| 2026-04-22 06:23 | 34.57738 | 32.84282 | 4883 ft | 213 kts | 256° |
| 2026-04-22 06:23 | 34.57385 | 32.82527 | 5494 ft | 215 kts | 256° |
| 2026-04-22 06:24 | 34.56673 | 32.78981 | 6712 ft | 219 kts | 256° |
| 2026-04-22 06:24 | 34.56312 | 32.77181 | 7299 ft | 221 kts | 256° |
| 2026-04-22 06:24 | 34.55946 | 32.75362 | 7887 ft | 223 kts | 256° |
| 2026-04-22 06:25 | 34.55578 | 32.73529 | 8482 ft | 224 kts | 256° |
| 2026-04-22 06:25 | 34.55207 | 32.71684 | 9062 ft | 226 kts | 256° |
| 2026-04-22 06:25 | 34.54833 | 32.69827 | 9612 ft | 227 kts | 256° |
| 2026-04-22 06:25 | 34.54459 | 32.67966 | 10176 ft | 228 kts | 257° |
| 2026-04-22 06:26 | 34.54082 | 32.66098 | 10725 ft | 228 kts | 257° |
| 2026-04-22 06:26 | 34.53705 | 32.64229 | 11259 ft | 229 kts | 257° |
| 2026-04-22 06:26 | 34.53325 | 32.62349 | 11779 ft | 230 kts | 257° |
| 2026-04-22 06:26 | 34.52945 | 32.60466 | 12294 ft | 230 kts | 257° |
| 2026-04-22 06:27 | 34.52563 | 32.58577 | 12758 ft | 231 kts | 257° |
| 2026-04-22 06:27 | 34.52177 | 32.56674 | 13237 ft | 233 kts | 257° |
| 2026-04-22 06:27 | 34.51790 | 32.54762 | 13682 ft | 234 kts | 257° |
| 2026-04-22 06:27 | 34.51399 | 32.52837 | 14111 ft | 236 kts | 257° |
| 2026-04-22 06:28 | 34.51005 | 32.50896 | 14543 ft | 237 kts | 257° |
| 2026-04-22 06:28 | 34.50609 | 32.48946 | 14954 ft | 239 kts | 257° |
| 2026-04-22 06:28 | 34.50210 | 32.46983 | 15350 ft | 240 kts | 257° |
| 2026-04-22 06:28 | 34.49809 | 32.45015 | 15751 ft | 241 kts | 257° |
| 2026-04-22 06:29 | 34.49405 | 32.43031 | 16124 ft | 242 kts | 257° |
| 2026-04-22 06:29 | 34.49000 | 32.41045 | 16482 ft | 244 kts | 257° |
| 2026-04-22 06:29 | 34.48591 | 32.39042 | 16849 ft | 245 kts | 257° |
| 2026-04-22 06:29 | 34.48182 | 32.37038 | 17188 ft | 246 kts | 257° |
| 2026-04-22 06:30 | 34.47771 | 32.35030 | 17522 ft | 247 kts | 257° |
| 2026-04-22 06:30 | 34.47356 | 32.33006 | 17853 ft | 248 kts | 257° |
| 2026-04-22 06:30 | 34.46939 | 32.30972 | 18163 ft | 249 kts | 257° |
| 2026-04-22 06:30 | 34.46520 | 32.28930 | 18466 ft | 250 kts | 257° |
| 2026-04-22 06:31 | 34.46098 | 32.26873 | 18754 ft | 252 kts | 257° |
| 2026-04-22 06:31 | 34.45675 | 32.24815 | 19051 ft | 252 kts | 257° |
| 2026-04-22 06:31 | 34.45251 | 32.22749 | 19317 ft | 253 kts | 257° |
| 2026-04-22 06:31 | 34.44823 | 32.20673 | 19594 ft | 255 kts | 257° |
| 2026-04-22 06:32 | 34.44393 | 32.18584 | 19854 ft | 256 kts | 257° |
| 2026-04-22 06:32 | 34.43967 | 32.16522 | 20112 ft | 256 kts | 257° |
| 2026-04-22 06:32 | 34.43535 | 32.14428 | 20365 ft | 257 kts | 257° |
| 2026-04-22 06:32 | 34.43099 | 32.12320 | 20594 ft | 258 kts | 257° |
| 2026-04-22 06:33 | 34.42663 | 32.10206 | 20823 ft | 259 kts | 257° |
| 2026-04-22 06:33 | 34.42253 | 32.08080 | 21059 ft | 259 kts | 263° |
| 2026-04-22 06:33 | 34.42408 | 32.05926 | 21254 ft | 261 kts | 289° |
| 2026-04-22 06:33 | 34.43323 | 32.04014 | 21434 ft | 265 kts | 304° |
| 2026-04-22 06:34 | 34.44450 | 32.02239 | 21650 ft | 266 kts | 306° |
| 2026-04-22 06:34 | 34.45608 | 32.00493 | 21838 ft | 267 kts | 306° |
| 2026-04-22 06:34 | 34.46797 | 31.98746 | 22028 ft | 269 kts | 307° |
| 2026-04-22 06:34 | 34.48011 | 31.96990 | 22068 ft | 275 kts | 307° |
| 2026-04-22 06:35 | 34.49213 | 31.95270 | 22079 ft | 281 kts | 307° |
| 2026-04-22 06:35 | 34.50496 | 31.93444 | 22070 ft | 287 kts | 307° |
| 2026-04-22 06:35 | 34.51806 | 31.91584 | 22066 ft | 293 kts | 308° |
| 2026-04-22 06:35 | 34.53141 | 31.89692 | 22062 ft | 297 kts | 308° |
| 2026-04-22 06:36 | 34.54492 | 31.87780 | 22064 ft | 301 kts | 308° |
| 2026-04-22 06:36 | 34.55861 | 31.85839 | 22065 ft | 304 kts | 308° |
| 2026-04-22 06:36 | 34.57241 | 31.83881 | 22066 ft | 307 kts | 308° |
| 2026-04-22 06:36 | 34.58636 | 31.81903 | 22063 ft | 309 kts | 308° |
| 2026-04-22 06:37 | 34.60037 | 31.79914 | 22063 ft | 311 kts | 308° |
| 2026-04-22 06:37 | 34.61445 | 31.77915 | 22062 ft | 312 kts | 308° |
| 2026-04-22 06:37 | 34.62853 | 31.75915 | 22064 ft | 311 kts | 308° |
| 2026-04-22 06:37 | 34.64253 | 31.73924 | 22062 ft | 311 kts | 308° |
| 2026-04-22 06:38 | 34.65661 | 31.71922 | 22062 ft | 311 kts | 308° |
| 2026-04-22 06:38 | 34.67063 | 31.69927 | 22063 ft | 310 kts | 308° |
| 2026-04-22 06:38 | 34.68460 | 31.67936 | 22062 ft | 310 kts | 308° |
| 2026-04-22 06:38 | 34.69861 | 31.65939 | 22062 ft | 310 kts | 308° |
| 2026-04-22 06:39 | 34.71262 | 31.63941 | 22062 ft | 310 kts | 308° |
| 2026-04-22 06:39 | 34.72662 | 31.61943 | 22061 ft | 310 kts | 308° |
| 2026-04-22 06:39 | 34.74061 | 31.59945 | 22063 ft | 310 kts | 308° |
| 2026-04-22 06:39 | 34.75461 | 31.57945 | 22062 ft | 310 kts | 308° |
| 2026-04-22 06:40 | 34.76855 | 31.55950 | 22062 ft | 310 kts | 308° |
| 2026-04-22 06:40 | 34.78253 | 31.53950 | 22064 ft | 310 kts | 308° |
| 2026-04-22 06:40 | 34.79650 | 31.51950 | 22065 ft | 310 kts | 308° |
| 2026-04-22 06:40 | 34.81041 | 31.49958 | 22071 ft | 310 kts | 308° |
| 2026-04-22 06:41 | 34.82436 | 31.47958 | 22071 ft | 310 kts | 308° |
| 2026-04-22 06:41 | 34.83835 | 31.45951 | 22071 ft | 310 kts | 307° |
| 2026-04-22 06:41 | 34.85210 | 31.43977 | 22071 ft | 309 kts | 307° |
| 2026-04-22 06:41 | 34.86598 | 31.41983 | 22072 ft | 309 kts | 307° |
| 2026-04-22 06:42 | 34.87987 | 31.39987 | 22074 ft | 309 kts | 307° |
| 2026-04-22 06:42 | 34.89396 | 31.37961 | 22071 ft | 309 kts | 307° |
| 2026-04-22 06:42 | 34.90765 | 31.35991 | 22070 ft | 309 kts | 307° |
| 2026-04-22 06:42 | 34.92152 | 31.33994 | 22070 ft | 309 kts | 307° |
| 2026-04-22 06:43 | 34.93540 | 31.31993 | 22075 ft | 309 kts | 307° |
| 2026-04-22 06:43 | 34.94927 | 31.29995 | 22072 ft | 309 kts | 307° |
| 2026-04-22 06:43 | 34.96312 | 31.27997 | 22073 ft | 309 kts | 307° |
| 2026-04-22 06:43 | 34.97701 | 31.25993 | 22070 ft | 309 kts | 307° |
| 2026-04-22 06:44 | 34.99081 | 31.23999 | 22070 ft | 309 kts | 307° |
| 2026-04-22 06:44 | 35.00466 | 31.21998 | 22070 ft | 308 kts | 307° |
| 2026-04-22 06:44 | 35.01850 | 31.19998 | 22075 ft | 309 kts | 307° |
| 2026-04-22 06:44 | 35.03237 | 31.17991 | 22072 ft | 309 kts | 307° |
| 2026-04-22 06:45 | 35.04637 | 31.15965 | 22072 ft | 309 kts | 307° |
| 2026-04-22 06:45 | 35.06020 | 31.13962 | 22072 ft | 308 kts | 307° |
| 2026-04-22 06:45 | 35.07402 | 31.11959 | 22071 ft | 308 kts | 307° |
| 2026-04-22 06:45 | 35.08781 | 31.09957 | 22072 ft | 308 kts | 307° |
| 2026-04-22 06:46 | 35.10159 | 31.07958 | 22073 ft | 307 kts | 307° |
| 2026-04-22 06:46 | 35.11533 | 31.05964 | 22073 ft | 307 kts | 307° |
| 2026-04-22 06:46 | 35.12912 | 31.03961 | 22073 ft | 308 kts | 307° |
| 2026-04-22 06:46 | 35.14285 | 31.01965 | 22070 ft | 307 kts | 307° |
| 2026-04-22 06:47 | 35.15654 | 30.99974 | 22070 ft | 307 kts | 307° |
| 2026-04-22 06:47 | 35.17028 | 30.97974 | 22071 ft | 307 kts | 307° |
| 2026-04-22 06:47 | 35.18401 | 30.95974 | 22074 ft | 307 kts | 307° |
| 2026-04-22 06:47 | 35.19777 | 30.93968 | 22070 ft | 307 kts | 307° |
| 2026-04-22 06:48 | 35.21150 | 30.91965 | 22073 ft | 307 kts | 307° |
| 2026-04-22 06:48 | 35.22525 | 30.89960 | 22072 ft | 307 kts | 307° |
| 2026-04-22 06:48 | 35.23860 | 30.88012 | 22072 ft | 307 kts | 307° |
| 2026-04-22 06:48 | 35.25232 | 30.86009 | 22070 ft | 307 kts | 307° |
| 2026-04-22 06:49 | 35.26605 | 30.84003 | 22071 ft | 307 kts | 307° |
| 2026-04-22 06:49 | 35.27959 | 30.82022 | 22073 ft | 307 kts | 307° |
| 2026-04-22 06:49 | 35.28888 | 30.80664 | 22071 ft | 307 kts | 307° |
| 2026-04-22 06:49 | 35.30256 | 30.78661 | 22072 ft | 307 kts | 307° |
| 2026-04-22 06:50 | 35.31628 | 30.76652 | 22062 ft | 307 kts | 307° |
| 2026-04-22 06:50 | 35.32987 | 30.74662 | 22063 ft | 307 kts | 307° |
| 2026-04-22 06:50 | 35.34357 | 30.72652 | 22063 ft | 307 kts | 307° |
| 2026-04-22 06:50 | 35.35725 | 30.70644 | 22063 ft | 307 kts | 307° |
| 2026-04-22 06:51 | 35.37112 | 30.68608 | 22062 ft | 307 kts | 307° |
| 2026-04-22 06:51 | 35.38464 | 30.66622 | 22062 ft | 307 kts | 307° |
| 2026-04-22 06:51 | 35.39846 | 30.64590 | 22062 ft | 307 kts | 307° |
| 2026-04-22 06:51 | 35.41213 | 30.62581 | 22062 ft | 307 kts | 307° |
| 2026-04-22 06:52 | 35.42579 | 30.60570 | 22062 ft | 307 kts | 307° |
| 2026-04-22 06:52 | 35.43942 | 30.58564 | 22062 ft | 307 kts | 307° |
| 2026-04-22 06:52 | 35.45312 | 30.56545 | 22062 ft | 307 kts | 307° |
| 2026-04-22 06:52 | 35.46660 | 30.54559 | 22062 ft | 307 kts | 307° |
| 2026-04-22 06:53 | 35.48040 | 30.52522 | 22055 ft | 307 kts | 307° |
| 2026-04-22 06:53 | 35.49384 | 30.50538 | 22052 ft | 306 kts | 307° |
| 2026-04-22 06:53 | 35.50744 | 30.48530 | 22053 ft | 307 kts | 307° |
| 2026-04-22 06:53 | 35.52110 | 30.46512 | 22054 ft | 307 kts | 307° |
| 2026-04-22 06:54 | 35.53469 | 30.44502 | 22053 ft | 306 kts | 307° |
| 2026-04-22 06:54 | 35.54833 | 30.42484 | 22053 ft | 307 kts | 307° |
| 2026-04-22 06:54 | 35.56192 | 30.40472 | 22053 ft | 307 kts | 307° |
| 2026-04-22 06:54 | 35.57554 | 30.38455 | 22053 ft | 306 kts | 307° |
| 2026-04-22 06:55 | 35.58911 | 30.36443 | 22053 ft | 305 kts | 307° |
| 2026-04-22 06:55 | 35.60268 | 30.34431 | 22053 ft | 305 kts | 307° |
| 2026-04-22 06:55 | 35.61625 | 30.32418 | 22053 ft | 306 kts | 307° |
| 2026-04-22 06:55 | 35.62981 | 30.30405 | 22053 ft | 306 kts | 307° |
| 2026-04-22 06:56 | 35.64338 | 30.28388 | 22053 ft | 305 kts | 307° |
| 2026-04-22 06:56 | 35.65691 | 30.26378 | 22053 ft | 305 kts | 307° |
| 2026-04-22 06:56 | 35.67046 | 30.24362 | 22053 ft | 305 kts | 307° |
| 2026-04-22 06:56 | 35.68394 | 30.22356 | 22053 ft | 305 kts | 307° |
| 2026-04-22 06:57 | 35.69745 | 30.20345 | 22053 ft | 305 kts | 307° |
| 2026-04-22 06:57 | 35.71101 | 30.18325 | 22053 ft | 305 kts | 307° |
| 2026-04-22 06:57 | 35.72453 | 30.16309 | 22053 ft | 305 kts | 307° |
| 2026-04-22 06:57 | 35.73803 | 30.14295 | 22053 ft | 305 kts | 307° |
| 2026-04-22 06:58 | 35.75157 | 30.12274 | 22053 ft | 305 kts | 307° |
| 2026-04-22 06:58 | 35.76509 | 30.10256 | 22053 ft | 305 kts | 307° |
| 2026-04-22 06:58 | 35.77856 | 30.08243 | 22053 ft | 305 kts | 307° |
| 2026-04-22 06:58 | 35.79209 | 30.06218 | 22053 ft | 305 kts | 307° |
| 2026-04-22 06:59 | 35.80559 | 30.04200 | 22053 ft | 305 kts | 307° |
| 2026-04-22 06:59 | 35.81898 | 30.02179 | 22051 ft | 305 kts | 304° |
| 2026-04-22 06:59 | 35.82981 | 30.00013 | 22054 ft | 303 kts | 295° |
| 2026-04-22 06:59 | 35.83810 | 29.97639 | 22054 ft | 302 kts | 289° |
| 2026-04-22 07:00 | 35.84522 | 29.95204 | 22055 ft | 302 kts | 288° |
| 2026-04-22 07:00 | 35.85216 | 29.92763 | 22054 ft | 302 kts | 288° |
| 2026-04-22 07:00 | 35.85901 | 29.90313 | 22053 ft | 302 kts | 288° |
| 2026-04-22 07:00 | 35.86577 | 29.87863 | 22053 ft | 302 kts | 288° |
| 2026-04-22 07:01 | 35.87250 | 29.85410 | 22053 ft | 302 kts | 288° |
| 2026-04-22 07:01 | 35.87921 | 29.82958 | 22053 ft | 302 kts | 287° |
| 2026-04-22 07:01 | 35.88589 | 29.80506 | 22053 ft | 302 kts | 287° |
| 2026-04-22 07:01 | 35.89257 | 29.78048 | 22053 ft | 302 kts | 287° |
| 2026-04-22 07:02 | 35.89923 | 29.75595 | 22053 ft | 302 kts | 287° |
| 2026-04-22 07:02 | 35.90589 | 29.73136 | 22053 ft | 302 kts | 287° |
| 2026-04-22 07:02 | 35.91255 | 29.70676 | 22053 ft | 302 kts | 287° |
| 2026-04-22 07:02 | 35.91919 | 29.68223 | 22053 ft | 302 kts | 287° |
| 2026-04-22 07:03 | 35.92582 | 29.65767 | 22052 ft | 302 kts | 287° |
| 2026-04-22 07:03 | 35.93247 | 29.63305 | 22043 ft | 302 kts | 287° |
| 2026-04-22 07:03 | 35.93909 | 29.60850 | 22043 ft | 302 kts | 287° |
| 2026-04-22 07:03 | 35.94572 | 29.58387 | 22044 ft | 302 kts | 287° |
| 2026-04-22 07:04 | 35.95421 | 29.56024 | 22044 ft | 303 kts | 300° |
| 2026-04-22 07:04 | 35.96728 | 29.53965 | 22044 ft | 307 kts | 312° |
| 2026-04-22 07:04 | 35.98293 | 29.52172 | 22044 ft | 307 kts | 315° |
| 2026-04-22 07:04 | 35.99902 | 29.50435 | 22045 ft | 307 kts | 316° |
| 2026-04-22 07:05 | 36.01521 | 29.48737 | 22044 ft | 307 kts | 316° |
| 2026-04-22 07:05 | 36.03140 | 29.47067 | 22044 ft | 307 kts | 317° |
| 2026-04-22 07:05 | 36.04786 | 29.45384 | 22044 ft | 307 kts | 317° |
| 2026-04-22 07:05 | 36.06459 | 29.43681 | 22044 ft | 307 kts | 317° |
| 2026-04-22 07:06 | 36.08086 | 29.42027 | 22043 ft | 307 kts | 317° |
| 2026-04-22 07:06 | 36.09737 | 29.40352 | 22044 ft | 307 kts | 317° |
| 2026-04-22 07:06 | 36.11387 | 29.38677 | 22043 ft | 306 kts | 317° |
| 2026-04-22 07:06 | 36.13032 | 29.37008 | 22044 ft | 306 kts | 317° |
| 2026-04-22 07:07 | 36.14678 | 29.35338 | 22044 ft | 306 kts | 317° |
| 2026-04-22 07:07 | 36.16324 | 29.33665 | 22044 ft | 306 kts | 317° |
| 2026-04-22 07:07 | 36.17946 | 29.32017 | 22044 ft | 306 kts | 317° |
| 2026-04-22 07:07 | 36.19583 | 29.30323 | 22037 ft | 307 kts | 316° |
| 2026-04-22 07:08 | 36.21215 | 29.28607 | 22035 ft | 309 kts | 316° |
| 2026-04-22 07:08 | 36.22856 | 29.26885 | 22035 ft | 310 kts | 316° |
| 2026-04-22 07:08 | 36.24506 | 29.25156 | 22036 ft | 311 kts | 316° |
| 2026-04-22 07:08 | 36.26164 | 29.23420 | 22036 ft | 312 kts | 316° |
| 2026-04-22 07:09 | 36.27826 | 29.21679 | 22036 ft | 313 kts | 316° |
| 2026-04-22 07:09 | 36.29490 | 29.19934 | 22035 ft | 314 kts | 316° |
| 2026-04-22 07:09 | 36.31155 | 29.18187 | 22034 ft | 314 kts | 316° |
| 2026-04-22 07:09 | 36.32822 | 29.16436 | 22035 ft | 314 kts | 316° |
| 2026-04-22 07:10 | 36.34494 | 29.14683 | 22035 ft | 314 kts | 316° |
| 2026-04-22 07:10 | 36.36117 | 29.12982 | 22035 ft | 315 kts | 316° |
| 2026-04-22 07:10 | 36.37789 | 29.11230 | 22035 ft | 315 kts | 316° |
| 2026-04-22 07:10 | 36.39487 | 29.09448 | 22036 ft | 315 kts | 316° |
| 2026-04-22 07:11 | 36.41158 | 29.07695 | 22035 ft | 315 kts | 316° |
| 2026-04-22 07:11 | 36.42831 | 29.05937 | 22035 ft | 315 kts | 316° |
| 2026-04-22 07:11 | 36.44505 | 29.04179 | 22035 ft | 316 kts | 316° |
| 2026-04-22 07:11 | 36.46186 | 29.02412 | 22035 ft | 317 kts | 316° |
| 2026-04-22 07:12 | 36.47866 | 29.00644 | 22035 ft | 317 kts | 316° |
| 2026-04-22 07:12 | 36.49553 | 28.98869 | 22035 ft | 318 kts | 316° |
| 2026-04-22 07:12 | 36.51243 | 28.97089 | 22036 ft | 318 kts | 316° |
| 2026-04-22 07:12 | 36.52927 | 28.95315 | 22036 ft | 319 kts | 316° |
| 2026-04-22 07:13 | 36.54620 | 28.93529 | 22034 ft | 319 kts | 316° |
| 2026-04-22 07:13 | 36.56310 | 28.91747 | 22035 ft | 319 kts | 316° |
| 2026-04-22 07:13 | 36.58003 | 28.89959 | 22035 ft | 319 kts | 316° |
| 2026-04-22 07:13 | 36.59695 | 28.88171 | 22035 ft | 319 kts | 316° |
| 2026-04-22 07:14 | 36.61383 | 28.86385 | 22032 ft | 319 kts | 316° |
| 2026-04-22 07:14 | 36.63074 | 28.84597 | 22034 ft | 318 kts | 316° |
| 2026-04-22 07:14 | 36.64760 | 28.82812 | 22040 ft | 318 kts | 316° |
| 2026-04-22 07:14 | 36.66442 | 28.81030 | 22030 ft | 317 kts | 316° |
| 2026-04-22 07:15 | 36.68122 | 28.79249 | 22037 ft | 317 kts | 316° |
| 2026-04-22 07:15 | 36.69801 | 28.77468 | 22034 ft | 317 kts | 316° |
| 2026-04-22 07:15 | 36.71480 | 28.75686 | 22035 ft | 317 kts | 316° |
| 2026-04-22 07:15 | 36.73153 | 28.73908 | 22030 ft | 317 kts | 316° |
| 2026-04-22 07:16 | 36.74831 | 28.72126 | 22034 ft | 316 kts | 316° |
| 2026-04-22 07:16 | 36.76506 | 28.70346 | 22036 ft | 316 kts | 316° |
| 2026-04-22 07:16 | 36.78179 | 28.68565 | 22037 ft | 316 kts | 316° |
| 2026-04-22 07:16 | 36.79849 | 28.66787 | 22032 ft | 316 kts | 316° |
| 2026-04-22 07:17 | 36.81523 | 28.65004 | 22036 ft | 316 kts | 316° |
| 2026-04-22 07:17 | 36.83200 | 28.63216 | 22032 ft | 316 kts | 316° |
| 2026-04-22 07:17 | 36.84875 | 28.61429 | 22034 ft | 316 kts | 316° |
| 2026-04-22 07:17 | 36.86546 | 28.59646 | 22034 ft | 316 kts | 316° |
| 2026-04-22 07:18 | 36.88216 | 28.57861 | 22038 ft | 316 kts | 316° |
| 2026-04-22 07:18 | 36.89885 | 28.56078 | 22034 ft | 316 kts | 316° |
| 2026-04-22 07:18 | 36.91555 | 28.54293 | 22034 ft | 315 kts | 316° |
| 2026-04-22 07:18 | 36.93221 | 28.52512 | 22033 ft | 316 kts | 316° |
| 2026-04-22 07:19 | 36.94817 | 28.50802 | 22030 ft | 316 kts | 316° |
| 2026-04-22 07:19 | 36.96467 | 28.49036 | 22080 ft | 316 kts | 316° |
| 2026-04-22 07:19 | 36.98152 | 28.47230 | 22098 ft | 312 kts | 316° |
| 2026-04-22 07:19 | 36.99773 | 28.45491 | 22095 ft | 312 kts | 316° |
| 2026-04-22 07:20 | 37.01423 | 28.43720 | 22006 ft | 310 kts | 316° |
| 2026-04-22 07:20 | 37.03063 | 28.41959 | 22011 ft | 310 kts | 316° |
| 2026-04-22 07:20 | 37.04601 | 28.40306 | 22017 ft | 310 kts | 316° |
| 2026-04-22 07:20 | 37.06237 | 28.38547 | 22016 ft | 310 kts | 316° |
| 2026-04-22 07:21 | 37.07874 | 28.36786 | 22013 ft | 310 kts | 316° |
| 2026-04-22 07:21 | 37.09501 | 28.35012 | 22017 ft | 310 kts | 315° |
| 2026-04-22 07:21 | 37.11125 | 28.33240 | 22020 ft | 309 kts | 315° |
| 2026-04-22 07:21 | 37.12752 | 28.31473 | 22019 ft | 309 kts | 316° |
| 2026-04-22 07:22 | 37.14381 | 28.29708 | 22016 ft | 309 kts | 316° |
| 2026-04-22 07:22 | 37.16008 | 28.27947 | 22018 ft | 309 kts | 316° |
| 2026-04-22 07:22 | 37.17640 | 28.26181 | 22025 ft | 310 kts | 316° |
| 2026-04-22 07:22 | 37.19273 | 28.24413 | 22008 ft | 310 kts | 316° |
| 2026-04-22 07:23 | 37.20890 | 28.22662 | 22008 ft | 309 kts | 316° |
| 2026-04-22 07:23 | 37.22513 | 28.20904 | 22010 ft | 308 kts | 316° |
| 2026-04-22 07:23 | 37.24137 | 28.19145 | 22009 ft | 309 kts | 316° |
| 2026-04-22 07:23 | 37.25763 | 28.17381 | 22008 ft | 309 kts | 316° |
| 2026-04-22 07:24 | 37.27387 | 28.15620 | 22004 ft | 309 kts | 316° |
| 2026-04-22 07:24 | 37.29014 | 28.13852 | 22003 ft | 309 kts | 316° |
| 2026-04-22 07:24 | 37.30639 | 28.12086 | 22007 ft | 309 kts | 315° |
| 2026-04-22 07:24 | 37.32267 | 28.10317 | 22008 ft | 309 kts | 315° |
| 2026-04-22 07:25 | 37.33875 | 28.08566 | 22012 ft | 309 kts | 315° |
| 2026-04-22 07:25 | 37.35502 | 28.06795 | 22003 ft | 309 kts | 315° |
| 2026-04-22 07:25 | 37.37093 | 28.05062 | 22014 ft | 309 kts | 315° |
| 2026-04-22 07:25 | 37.38725 | 28.03285 | 22004 ft | 309 kts | 315° |
| 2026-04-22 07:26 | 37.40346 | 28.01517 | 22003 ft | 309 kts | 315° |
| 2026-04-22 07:26 | 37.41970 | 27.99745 | 22012 ft | 309 kts | 315° |
| 2026-04-22 07:26 | 37.43591 | 27.97973 | 22007 ft | 309 kts | 315° |
| 2026-04-22 07:26 | 37.45212 | 27.96203 | 22008 ft | 309 kts | 315° |
| 2026-04-22 07:27 | 37.46836 | 27.94426 | 22005 ft | 309 kts | 315° |
| 2026-04-22 07:27 | 37.48461 | 27.92649 | 22001 ft | 310 kts | 315° |
| 2026-04-22 07:27 | 37.50089 | 27.90866 | 22004 ft | 310 kts | 315° |
| 2026-04-22 07:27 | 37.51714 | 27.89085 | 21997 ft | 310 kts | 315° |
| 2026-04-22 07:28 | 37.54966 | 27.85520 | 21996 ft | 310 kts | 315° |
| 2026-04-22 07:28 | 37.56585 | 27.83743 | 21993 ft | 310 kts | 315° |
| 2026-04-22 07:28 | 37.58212 | 27.81956 | 21992 ft | 310 kts | 315° |
| 2026-04-22 07:29 | 37.59833 | 27.80175 | 21993 ft | 309 kts | 315° |
| 2026-04-22 07:29 | 37.60909 | 27.78992 | 21994 ft | 309 kts | 315° |
| 2026-04-22 07:29 | 37.62531 | 27.77208 | 21992 ft | 309 kts | 315° |
| 2026-04-22 07:29 | 37.64149 | 27.75427 | 21992 ft | 309 kts | 315° |
| 2026-04-22 07:30 | 37.65770 | 27.73640 | 21991 ft | 309 kts | 315° |
| 2026-04-22 07:30 | 37.67390 | 27.71855 | 21989 ft | 309 kts | 315° |
| 2026-04-22 07:30 | 37.69012 | 27.70066 | 21993 ft | 309 kts | 315° |
| 2026-04-22 07:30 | 37.70630 | 27.68281 | 21991 ft | 309 kts | 315° |
| 2026-04-22 07:31 | 37.72248 | 27.66495 | 22014 ft | 309 kts | 315° |
| 2026-04-22 07:31 | 37.73867 | 27.64706 | 21996 ft | 310 kts | 315° |
| 2026-04-22 07:31 | 37.75491 | 27.62911 | 21986 ft | 310 kts | 315° |
| 2026-04-22 07:31 | 37.77112 | 27.61117 | 21988 ft | 310 kts | 315° |
| 2026-04-22 07:32 | 37.78734 | 27.59322 | 21990 ft | 310 kts | 315° |
| 2026-04-22 07:32 | 37.80354 | 27.57528 | 21992 ft | 309 kts | 315° |
| 2026-04-22 07:32 | 37.81971 | 27.55736 | 21991 ft | 309 kts | 315° |
| 2026-04-22 07:32 | 37.83588 | 27.53943 | 21990 ft | 309 kts | 315° |
| 2026-04-22 07:33 | 37.85204 | 27.52149 | 21989 ft | 309 kts | 315° |
| 2026-04-22 07:33 | 37.86813 | 27.50364 | 21987 ft | 309 kts | 315° |
| 2026-04-22 07:33 | 37.88402 | 27.48598 | 21986 ft | 309 kts | 315° |
| 2026-04-22 07:33 | 37.90018 | 27.46801 | 21983 ft | 309 kts | 315° |
| 2026-04-22 07:34 | 37.91629 | 27.45014 | 21985 ft | 308 kts | 315° |
| 2026-04-22 07:34 | 37.93248 | 27.43230 | 21987 ft | 308 kts | 315° |
| 2026-04-22 07:34 | 37.94890 | 27.41424 | 21983 ft | 309 kts | 315° |
| 2026-04-22 07:34 | 37.96492 | 27.39665 | 21983 ft | 309 kts | 315° |
| 2026-04-22 07:35 | 37.98113 | 27.37884 | 21995 ft | 309 kts | 315° |
| 2026-04-22 07:35 | 37.99738 | 27.36099 | 21992 ft | 309 kts | 315° |
| 2026-04-22 07:35 | 38.01360 | 27.34318 | 21993 ft | 308 kts | 315° |
| 2026-04-22 07:35 | 38.02979 | 27.32538 | 21997 ft | 309 kts | 315° |
| 2026-04-22 07:36 | 38.04600 | 27.30755 | 21983 ft | 309 kts | 315° |
| 2026-04-22 07:36 | 38.06216 | 27.28976 | 21995 ft | 309 kts | 315° |
| 2026-04-22 07:36 | 38.07839 | 27.27189 | 21990 ft | 309 kts | 315° |
| 2026-04-22 07:36 | 38.09484 | 27.25376 | 21992 ft | 309 kts | 315° |
| 2026-04-22 07:37 | 38.11088 | 27.23608 | 21993 ft | 309 kts | 315° |
| 2026-04-22 07:37 | 38.12711 | 27.21817 | 21987 ft | 309 kts | 315° |
| 2026-04-22 07:37 | 38.14355 | 27.20002 | 21981 ft | 309 kts | 315° |
| 2026-04-22 07:37 | 38.15955 | 27.18234 | 21982 ft | 309 kts | 315° |
| 2026-04-22 07:38 | 38.17560 | 27.16461 | 21982 ft | 309 kts | 315° |
| 2026-04-22 07:38 | 38.19183 | 27.14663 | 21982 ft | 309 kts | 315° |
| 2026-04-22 07:38 | 38.20800 | 27.12874 | 21983 ft | 309 kts | 315° |
| 2026-04-22 07:38 | 38.22416 | 27.11083 | 21984 ft | 308 kts | 315° |
| 2026-04-22 07:39 | 38.24014 | 27.09312 | 21987 ft | 308 kts | 315° |
| 2026-04-22 07:39 | 38.25630 | 27.07519 | 21986 ft | 308 kts | 315° |
| 2026-04-22 07:39 | 38.27245 | 27.05727 | 21983 ft | 308 kts | 315° |
| 2026-04-22 07:39 | 38.28868 | 27.03926 | 21984 ft | 308 kts | 315° |
| 2026-04-22 07:40 | 38.30478 | 27.02135 | 22007 ft | 308 kts | 315° |
| 2026-04-22 07:40 | 38.32097 | 27.00338 | 21983 ft | 309 kts | 315° |
| 2026-04-22 07:40 | 38.33734 | 26.98570 | 21978 ft | 309 kts | 316° |
| 2026-04-22 07:40 | 38.35377 | 26.96805 | 21982 ft | 308 kts | 316° |
| 2026-04-22 07:41 | 38.37017 | 26.95045 | 21979 ft | 309 kts | 316° |
| 2026-04-22 07:41 | 38.38661 | 26.93280 | 21979 ft | 309 kts | 316° |
| 2026-04-22 07:41 | 38.40288 | 26.91533 | 21977 ft | 308 kts | 316° |
| 2026-04-22 07:41 | 38.41930 | 26.89771 | 21978 ft | 308 kts | 316° |
| 2026-04-22 07:42 | 38.43568 | 26.88010 | 21982 ft | 308 kts | 316° |
| 2026-04-22 07:42 | 38.45205 | 26.86248 | 21980 ft | 308 kts | 316° |
| 2026-04-22 07:42 | 38.46844 | 26.84485 | 21976 ft | 308 kts | 316° |
| 2026-04-22 07:42 | 38.48481 | 26.82722 | 21971 ft | 308 kts | 316° |
| 2026-04-22 07:43 | 38.50121 | 26.80956 | 21973 ft | 308 kts | 315° |
| 2026-04-22 07:43 | 38.51759 | 26.79190 | 21970 ft | 308 kts | 315° |
| 2026-04-22 07:43 | 38.53397 | 26.77423 | 21969 ft | 308 kts | 315° |
| 2026-04-22 07:43 | 38.55031 | 26.75658 | 21969 ft | 308 kts | 315° |
| 2026-04-22 07:44 | 38.56667 | 26.73891 | 21970 ft | 308 kts | 315° |
| 2026-04-22 07:44 | 38.58297 | 26.72129 | 21972 ft | 308 kts | 315° |
| 2026-04-22 07:44 | 38.59937 | 26.70356 | 21982 ft | 308 kts | 315° |
| 2026-04-22 07:44 | 38.61573 | 26.68585 | 21968 ft | 308 kts | 315° |
| 2026-04-22 07:45 | 38.63208 | 26.66814 | 21968 ft | 308 kts | 315° |
| 2026-04-22 07:45 | 38.64844 | 26.65042 | 21970 ft | 308 kts | 315° |
| 2026-04-22 07:45 | 38.66472 | 26.63276 | 21970 ft | 308 kts | 315° |
| 2026-04-22 07:45 | 38.68087 | 26.61524 | 21972 ft | 308 kts | 315° |
| 2026-04-22 07:46 | 38.69719 | 26.59752 | 21970 ft | 308 kts | 315° |
| 2026-04-22 07:46 | 38.71348 | 26.57982 | 21973 ft | 307 kts | 315° |
| 2026-04-22 07:46 | 38.72979 | 26.56209 | 21982 ft | 307 kts | 315° |
| 2026-04-22 07:46 | 38.74609 | 26.54436 | 21975 ft | 307 kts | 315° |
| 2026-04-22 07:47 | 38.76230 | 26.52670 | 21972 ft | 307 kts | 315° |
| 2026-04-22 07:47 | 38.77853 | 26.50901 | 21973 ft | 307 kts | 315° |
| 2026-04-22 07:47 | 38.79479 | 26.49130 | 21975 ft | 307 kts | 315° |
| 2026-04-22 07:47 | 38.81106 | 26.47357 | 21975 ft | 307 kts | 315° |
| 2026-04-22 07:48 | 38.82689 | 26.45630 | 21977 ft | 307 kts | 315° |
| 2026-04-22 07:48 | 38.84312 | 26.43856 | 21976 ft | 307 kts | 315° |
| 2026-04-22 07:48 | 38.85939 | 26.42078 | 21977 ft | 307 kts | 315° |
| 2026-04-22 07:48 | 38.87567 | 26.40299 | 21990 ft | 307 kts | 315° |
| 2026-04-22 07:49 | 38.89189 | 26.38523 | 21975 ft | 307 kts | 315° |
| 2026-04-22 07:49 | 38.90814 | 26.36744 | 21984 ft | 307 kts | 315° |
| 2026-04-22 07:49 | 38.92436 | 26.34967 | 21984 ft | 307 kts | 315° |
| 2026-04-22 07:49 | 38.94064 | 26.33183 | 21977 ft | 307 kts | 315° |
| 2026-04-22 07:50 | 38.95686 | 26.31404 | 21968 ft | 307 kts | 315° |
| 2026-04-22 07:50 | 38.97308 | 26.29622 | 21979 ft | 307 kts | 315° |
| 2026-04-22 07:50 | 38.98898 | 26.27876 | 21980 ft | 306 kts | 315° |
| 2026-04-22 07:50 | 39.00518 | 26.26096 | 21978 ft | 306 kts | 315° |
| 2026-04-22 07:51 | 39.02136 | 26.24317 | 21976 ft | 306 kts | 315° |
| 2026-04-22 07:51 | 39.03757 | 26.22533 | 21973 ft | 307 kts | 315° |
| 2026-04-22 07:51 | 39.05380 | 26.20745 | 21974 ft | 307 kts | 315° |
| 2026-04-22 07:51 | 39.06984 | 26.18978 | 21975 ft | 307 kts | 315° |
| 2026-04-22 07:52 | 39.08624 | 26.17170 | 21972 ft | 307 kts | 315° |
| 2026-04-22 07:52 | 39.10224 | 26.15405 | 21984 ft | 307 kts | 315° |
| 2026-04-22 07:52 | 39.11849 | 26.13611 | 21970 ft | 307 kts | 315° |
| 2026-04-22 07:52 | 39.13493 | 26.11797 | 21976 ft | 307 kts | 315° |
| 2026-04-22 07:53 | 39.15112 | 26.10006 | 21987 ft | 307 kts | 315° |
| 2026-04-22 07:53 | 39.16711 | 26.08236 | 21992 ft | 308 kts | 315° |
| 2026-04-22 07:53 | 39.18336 | 26.06437 | 21977 ft | 308 kts | 315° |
| 2026-04-22 07:53 | 39.19962 | 26.04638 | 21980 ft | 308 kts | 315° |
| 2026-04-22 07:54 | 39.21590 | 26.02832 | 21984 ft | 308 kts | 315° |
| 2026-04-22 07:54 | 39.23211 | 26.01035 | 21981 ft | 308 kts | 315° |
| 2026-04-22 07:54 | 39.24835 | 25.99234 | 21984 ft | 308 kts | 315° |
| 2026-04-22 07:54 | 39.26396 | 25.97500 | 21979 ft | 308 kts | 315° |
| 2026-04-22 07:55 | 39.28019 | 25.95697 | 21984 ft | 308 kts | 315° |
| 2026-04-22 07:55 | 39.29640 | 25.93892 | 21996 ft | 308 kts | 314° |
| 2026-04-22 07:55 | 39.31248 | 25.92070 | 21986 ft | 308 kts | 314° |
| 2026-04-22 07:55 | 39.32862 | 25.90252 | 21985 ft | 308 kts | 315° |
| 2026-04-22 07:56 | 39.34477 | 25.88443 | 21994 ft | 307 kts | 315° |
| 2026-04-22 07:56 | 39.36096 | 25.86636 | 21990 ft | 308 kts | 315° |
| 2026-04-22 07:56 | 39.37715 | 25.84830 | 21994 ft | 308 kts | 315° |
| 2026-04-22 07:56 | 39.39335 | 25.83024 | 21993 ft | 307 kts | 315° |
| 2026-04-22 07:57 | 39.40955 | 25.81216 | 21992 ft | 307 kts | 315° |
| 2026-04-22 07:57 | 39.42562 | 25.79424 | 21996 ft | 307 kts | 315° |
| 2026-04-22 07:57 | 39.44181 | 25.77617 | 22004 ft | 308 kts | 315° |
| 2026-04-22 07:57 | 39.45802 | 25.75806 | 21999 ft | 308 kts | 315° |
| 2026-04-22 07:58 | 39.47424 | 25.73994 | 21997 ft | 308 kts | 315° |
| 2026-04-22 07:58 | 39.49043 | 25.72182 | 22003 ft | 308 kts | 315° |
| 2026-04-22 07:58 | 39.50662 | 25.70371 | 22002 ft | 308 kts | 315° |
| 2026-04-22 07:58 | 39.52281 | 25.68557 | 22003 ft | 308 kts | 315° |
| 2026-04-22 07:59 | 39.53898 | 25.66745 | 22002 ft | 308 kts | 315° |
| 2026-04-22 07:59 | 39.55516 | 25.64931 | 22002 ft | 308 kts | 315° |
| 2026-04-22 07:59 | 39.57140 | 25.63109 | 22012 ft | 308 kts | 314° |
| 2026-04-22 07:59 | 39.58750 | 25.61300 | 22005 ft | 307 kts | 314° |
| 2026-04-22 08:00 | 39.60364 | 25.59486 | 22011 ft | 307 kts | 314° |
| 2026-04-22 08:00 | 39.61977 | 25.57673 | 22013 ft | 307 kts | 314° |
| 2026-04-22 08:00 | 39.63583 | 25.55865 | 22014 ft | 307 kts | 314° |
| 2026-04-22 08:00 | 39.65193 | 25.54052 | 22012 ft | 306 kts | 314° |
| 2026-04-22 08:01 | 39.66802 | 25.52239 | 22013 ft | 306 kts | 314° |
| 2026-04-22 08:01 | 39.68412 | 25.50423 | 22010 ft | 307 kts | 314° |
| 2026-04-22 08:01 | 39.70022 | 25.48606 | 22014 ft | 306 kts | 314° |
| 2026-04-22 08:01 | 39.71633 | 25.46788 | 22045 ft | 307 kts | 314° |
| 2026-04-22 08:02 | 39.73227 | 25.44985 | 22026 ft | 309 kts | 314° |
| 2026-04-22 08:02 | 39.74869 | 25.43129 | 22016 ft | 308 kts | 314° |
| 2026-04-22 08:02 | 39.76461 | 25.41328 | 22016 ft | 307 kts | 314° |
| 2026-04-22 08:02 | 39.78070 | 25.39507 | 22015 ft | 308 kts | 314° |
| 2026-04-22 08:03 | 39.79648 | 25.37719 | 22016 ft | 308 kts | 314° |
| 2026-04-22 08:03 | 39.81259 | 25.35892 | 22021 ft | 307 kts | 314° |
| 2026-04-22 08:03 | 39.82868 | 25.34066 | 22024 ft | 307 kts | 314° |
| 2026-04-22 08:03 | 39.84482 | 25.32233 | 22029 ft | 308 kts | 314° |
| 2026-04-22 08:04 | 39.86092 | 25.30405 | 22010 ft | 308 kts | 314° |
| 2026-04-22 08:04 | 39.87708 | 25.28568 | 22013 ft | 308 kts | 314° |
| 2026-04-22 08:04 | 39.89323 | 25.26731 | 22009 ft | 308 kts | 314° |
| 2026-04-22 08:04 | 39.90898 | 25.24854 | 22009 ft | 306 kts | 310° |
| 2026-04-22 08:05 | 39.92297 | 25.22772 | 22009 ft | 304 kts | 305° |
| 2026-04-22 08:05 | 39.93569 | 25.20573 | 22010 ft | 303 kts | 303° |
| 2026-04-22 08:05 | 39.94806 | 25.18361 | 22012 ft | 303 kts | 303° |
| 2026-04-22 08:05 | 39.96039 | 25.16130 | 22010 ft | 303 kts | 302° |
| 2026-04-22 08:06 | 39.97266 | 25.13893 | 22019 ft | 304 kts | 302° |
| 2026-04-22 08:06 | 39.98492 | 25.11648 | 22012 ft | 304 kts | 302° |
| 2026-04-22 08:06 | 39.99717 | 25.09398 | 22018 ft | 304 kts | 302° |
| 2026-04-22 08:06 | 40.00935 | 25.07155 | 22011 ft | 303 kts | 302° |
| 2026-04-22 08:07 | 40.02154 | 25.04907 | 22014 ft | 303 kts | 302° |
| 2026-04-22 08:07 | 40.03370 | 25.02664 | 22021 ft | 303 kts | 302° |
| 2026-04-22 08:07 | 40.04589 | 25.00414 | 22024 ft | 303 kts | 302° |
| 2026-04-22 08:07 | 40.05799 | 24.98176 | 22022 ft | 300 kts | 302° |
| 2026-04-22 08:08 | 40.07003 | 24.95948 | 22031 ft | 300 kts | 302° |
| 2026-04-22 08:08 | 40.08207 | 24.93718 | 22036 ft | 301 kts | 302° |
| 2026-04-22 08:08 | 40.09410 | 24.91487 | 22033 ft | 301 kts | 302° |
| 2026-04-22 08:08 | 40.10580 | 24.89317 | 22035 ft | 301 kts | 302° |
| 2026-04-22 08:09 | 40.11786 | 24.87079 | 22035 ft | 301 kts | 302° |
| 2026-04-22 08:09 | 40.12991 | 24.84841 | 22034 ft | 301 kts | 302° |
| 2026-04-22 08:09 | 40.14194 | 24.82605 | 22034 ft | 301 kts | 302° |
| 2026-04-22 08:09 | 40.15398 | 24.80365 | 22034 ft | 301 kts | 302° |
| 2026-04-22 08:10 | 40.16600 | 24.78130 | 22038 ft | 302 kts | 302° |
| 2026-04-22 08:10 | 40.17803 | 24.75889 | 22039 ft | 299 kts | 302° |
| 2026-04-22 08:10 | 40.18998 | 24.73657 | 22037 ft | 300 kts | 302° |
| 2026-04-22 08:10 | 40.20182 | 24.71448 | 22038 ft | 300 kts | 302° |
| 2026-04-22 08:11 | 40.21394 | 24.69184 | 22038 ft | 300 kts | 302° |
| 2026-04-22 08:11 | 40.22596 | 24.66940 | 22038 ft | 301 kts | 302° |
| 2026-04-22 08:11 | 40.23778 | 24.64726 | 22038 ft | 301 kts | 302° |
| 2026-04-22 08:11 | 40.24992 | 24.62455 | 22040 ft | 301 kts | 302° |
| 2026-04-22 08:12 | 40.26174 | 24.60244 | 22038 ft | 300 kts | 302° |
| 2026-04-22 08:12 | 40.27372 | 24.57998 | 22038 ft | 300 kts | 302° |
| 2026-04-22 08:12 | 40.28564 | 24.55763 | 22038 ft | 300 kts | 302° |
| 2026-04-22 08:12 | 40.29757 | 24.53522 | 22037 ft | 300 kts | 302° |
| 2026-04-22 08:13 | 40.30951 | 24.51278 | 22042 ft | 300 kts | 302° |
| 2026-04-22 08:13 | 40.32141 | 24.49042 | 22043 ft | 300 kts | 302° |
| 2026-04-22 08:13 | 40.33334 | 24.46797 | 22044 ft | 300 kts | 302° |
| 2026-04-22 08:13 | 40.34495 | 24.44611 | 22044 ft | 300 kts | 302° |
| 2026-04-22 08:14 | 40.35687 | 24.42366 | 22062 ft | 300 kts | 301° |
| 2026-04-22 08:14 | 40.36872 | 24.40132 | 22040 ft | 296 kts | 301° |
| 2026-04-22 08:14 | 40.37651 | 24.38662 | 22041 ft | 296 kts | 301° |
| 2026-04-22 08:14 | 40.38823 | 24.36448 | 22046 ft | 295 kts | 301° |
| 2026-04-22 08:15 | 40.39994 | 24.34237 | 22043 ft | 295 kts | 301° |
| 2026-04-22 08:15 | 40.41163 | 24.32028 | 22044 ft | 295 kts | 301° |
| 2026-04-22 08:15 | 40.42333 | 24.29814 | 22044 ft | 295 kts | 301° |
| 2026-04-22 08:15 | 40.43502 | 24.27601 | 22044 ft | 295 kts | 301° |
| 2026-04-22 08:16 | 40.44668 | 24.25392 | 22044 ft | 295 kts | 301° |
| 2026-04-22 08:16 | 40.45833 | 24.23183 | 22046 ft | 295 kts | 301° |
| 2026-04-22 08:16 | 40.47002 | 24.20964 | 22043 ft | 295 kts | 301° |
| 2026-04-22 08:16 | 40.48168 | 24.18750 | 22043 ft | 295 kts | 301° |
| 2026-04-22 08:17 | 40.49332 | 24.16540 | 22046 ft | 295 kts | 301° |
| 2026-04-22 08:17 | 40.50502 | 24.14316 | 22041 ft | 295 kts | 301° |
| 2026-04-22 08:17 | 40.51666 | 24.12099 | 22050 ft | 295 kts | 301° |
| 2026-04-22 08:17 | 40.52832 | 24.09880 | 22048 ft | 295 kts | 301° |
| 2026-04-22 08:18 | 40.53998 | 24.07659 | 22041 ft | 295 kts | 301° |
| 2026-04-22 08:18 | 40.55161 | 24.05443 | 22055 ft | 293 kts | 301° |
| 2026-04-22 08:18 | 40.56317 | 24.03237 | 22039 ft | 292 kts | 301° |
| 2026-04-22 08:18 | 40.57452 | 24.01069 | 22040 ft | 292 kts | 301° |
| 2026-04-22 08:19 | 40.58602 | 23.98871 | 22051 ft | 292 kts | 301° |
| 2026-04-22 08:19 | 40.59754 | 23.96664 | 22050 ft | 292 kts | 300° |
| 2026-04-22 08:19 | 40.60886 | 23.94449 | 22049 ft | 292 kts | 300° |
| 2026-04-22 08:19 | 40.62020 | 23.92237 | 22048 ft | 292 kts | 300° |
| 2026-04-22 08:20 | 40.63165 | 23.90022 | 22045 ft | 293 kts | 300° |
| 2026-04-22 08:20 | 40.64312 | 23.87812 | 22049 ft | 293 kts | 301° |
| 2026-04-22 08:20 | 40.65463 | 23.85599 | 22049 ft | 293 kts | 301° |
| 2026-04-22 08:20 | 40.66615 | 23.83385 | 22048 ft | 293 kts | 301° |
| 2026-04-22 08:21 | 40.67766 | 23.81177 | 22051 ft | 292 kts | 301° |
| 2026-04-22 08:21 | 40.68916 | 23.78966 | 22050 ft | 292 kts | 301° |
| 2026-04-22 08:21 | 40.70064 | 23.76756 | 22048 ft | 292 kts | 301° |
| 2026-04-22 08:21 | 40.71211 | 23.74551 | 22084 ft | 291 kts | 300° |
| 2026-04-22 08:22 | 40.72341 | 23.72376 | 22046 ft | 285 kts | 300° |
| 2026-04-22 08:22 | 40.73458 | 23.70225 | 22049 ft | 284 kts | 300° |
| 2026-04-22 08:22 | 40.74573 | 23.68074 | 22047 ft | 284 kts | 300° |
| 2026-04-22 08:22 | 40.75689 | 23.65920 | 22056 ft | 284 kts | 300° |
| 2026-04-22 08:23 | 40.76804 | 23.63767 | 22046 ft | 285 kts | 300° |
| 2026-04-22 08:23 | 40.77925 | 23.61600 | 22051 ft | 285 kts | 300° |
| 2026-04-22 08:23 | 40.79042 | 23.59441 | 22050 ft | 286 kts | 300° |
| 2026-04-22 08:23 | 40.80160 | 23.57280 | 22045 ft | 287 kts | 300° |
| 2026-04-22 08:24 | 40.81284 | 23.55104 | 22045 ft | 286 kts | 300° |
| 2026-04-22 08:24 | 40.82403 | 23.52934 | 22041 ft | 285 kts | 300° |
| 2026-04-22 08:24 | 40.83514 | 23.50777 | 22049 ft | 285 kts | 300° |
| 2026-04-22 08:24 | 40.84603 | 23.48662 | 22039 ft | 286 kts | 300° |
| 2026-04-22 08:25 | 40.85724 | 23.46489 | 22045 ft | 286 kts | 300° |
| 2026-04-22 08:25 | 40.86841 | 23.44313 | 22040 ft | 285 kts | 300° |
| 2026-04-22 08:25 | 40.87953 | 23.42148 | 22046 ft | 285 kts | 300° |
| 2026-04-22 08:25 | 40.89068 | 23.39980 | 22051 ft | 285 kts | 300° |
| 2026-04-22 08:26 | 40.90178 | 23.37817 | 22048 ft | 285 kts | 300° |
| 2026-04-22 08:26 | 40.91293 | 23.35643 | 22044 ft | 285 kts | 300° |
| 2026-04-22 08:26 | 40.92398 | 23.33485 | 22049 ft | 283 kts | 300° |
| 2026-04-22 08:26 | 40.93502 | 23.31329 | 22045 ft | 284 kts | 300° |
| 2026-04-22 08:27 | 40.94614 | 23.29157 | 22054 ft | 285 kts | 300° |
| 2026-04-22 08:27 | 40.95730 | 23.26974 | 22051 ft | 287 kts | 300° |
| 2026-04-22 08:27 | 40.96841 | 23.24800 | 22046 ft | 286 kts | 299° |
| 2026-04-22 08:27 | 40.97947 | 23.22619 | 22044 ft | 285 kts | 299° |
| 2026-04-22 08:28 | 40.99052 | 23.20426 | 22050 ft | 286 kts | 299° |
| 2026-04-22 08:28 | 41.00159 | 23.18241 | 22042 ft | 285 kts | 299° |
| 2026-04-22 08:28 | 41.01268 | 23.16059 | 22047 ft | 286 kts | 299° |
| 2026-04-22 08:28 | 41.02379 | 23.13873 | 22042 ft | 286 kts | 300° |
| 2026-04-22 08:29 | 41.03489 | 23.11693 | 22047 ft | 286 kts | 299° |
| 2026-04-22 08:29 | 41.04600 | 23.09509 | 22059 ft | 286 kts | 299° |
| 2026-04-22 08:29 | 41.05720 | 23.07308 | 22066 ft | 285 kts | 299° |
| 2026-04-22 08:29 | 41.06815 | 23.05153 | 22037 ft | 281 kts | 299° |
| 2026-04-22 08:30 | 41.07906 | 23.03003 | 22047 ft | 281 kts | 299° |
| 2026-04-22 08:30 | 41.09039 | 23.00849 | 22043 ft | 284 kts | 304° |
| 2026-04-22 08:30 | 41.10460 | 22.98990 | 22046 ft | 290 kts | 313° |
| 2026-04-22 08:30 | 41.12100 | 22.97390 | 22046 ft | 294 kts | 317° |
| 2026-04-22 08:31 | 41.13766 | 22.95859 | 22046 ft | 294 kts | 317° |
| 2026-04-22 08:31 | 41.15460 | 22.94339 | 22043 ft | 294 kts | 318° |
| 2026-04-22 08:31 | 41.18875 | 22.91337 | 22055 ft | 296 kts | 319° |
| 2026-04-22 08:32 | 41.20601 | 22.89833 | 22050 ft | 296 kts | 319° |
| 2026-04-22 08:32 | 41.22320 | 22.88340 | 22034 ft | 295 kts | 319° |
| 2026-04-22 08:32 | 41.24035 | 22.86852 | 22048 ft | 293 kts | 319° |
| 2026-04-22 08:32 | 41.25742 | 22.85369 | 22061 ft | 295 kts | 319° |
| 2026-04-22 08:33 | 41.27465 | 22.83873 | 22045 ft | 296 kts | 319° |
| 2026-04-22 08:33 | 41.29187 | 22.82376 | 22046 ft | 296 kts | 319° |
| 2026-04-22 08:33 | 41.30902 | 22.80886 | 22068 ft | 296 kts | 319° |
| 2026-04-22 08:33 | 41.32615 | 22.79398 | 22029 ft | 294 kts | 319° |
| 2026-04-22 08:34 | 41.34313 | 22.77917 | 22067 ft | 292 kts | 318° |
| 2026-04-22 08:34 | 41.36006 | 22.76432 | 22061 ft | 291 kts | 318° |
| 2026-04-22 08:34 | 41.37705 | 22.74945 | 22061 ft | 293 kts | 318° |
| 2026-04-22 08:34 | 41.39397 | 22.73465 | 22046 ft | 291 kts | 318° |
| 2026-04-22 08:35 | 41.41089 | 22.71985 | 22047 ft | 291 kts | 318° |
| 2026-04-22 08:35 | 41.42782 | 22.70503 | 22053 ft | 291 kts | 318° |
| 2026-04-22 08:35 | 41.44476 | 22.69019 | 22061 ft | 291 kts | 319° |
| 2026-04-22 08:35 | 41.46169 | 22.67535 | 22057 ft | 291 kts | 318° |
| 2026-04-22 08:36 | 41.47849 | 22.66062 | 22060 ft | 291 kts | 318° |
| 2026-04-22 08:36 | 41.49541 | 22.64577 | 22063 ft | 291 kts | 318° |
| 2026-04-22 08:36 | 41.51233 | 22.63091 | 22050 ft | 291 kts | 318° |
| 2026-04-22 08:36 | 41.52924 | 22.61605 | 22055 ft | 291 kts | 318° |
| 2026-04-22 08:37 | 41.54613 | 22.60120 | 22061 ft | 291 kts | 318° |
| 2026-04-22 08:37 | 41.56302 | 22.58635 | 22073 ft | 287 kts | 318° |
| 2026-04-22 08:37 | 41.57958 | 22.57179 | 22060 ft | 284 kts | 318° |
| 2026-04-22 08:37 | 41.59566 | 22.55760 | 22064 ft | 286 kts | 318° |
| 2026-04-22 08:38 | 41.61229 | 22.54292 | 22069 ft | 287 kts | 318° |
| 2026-04-22 08:38 | 41.62891 | 22.52826 | 22062 ft | 286 kts | 318° |
| 2026-04-22 08:38 | 41.64546 | 22.51366 | 22071 ft | 286 kts | 318° |
| 2026-04-22 08:38 | 41.66205 | 22.49901 | 22050 ft | 286 kts | 319° |
| 2026-04-22 08:39 | 41.67867 | 22.48432 | 22066 ft | 286 kts | 318° |
| 2026-04-22 08:39 | 41.69525 | 22.46964 | 22068 ft | 287 kts | 318° |
| 2026-04-22 08:39 | 41.71188 | 22.45492 | 22075 ft | 286 kts | 319° |
| 2026-04-22 08:39 | 41.72841 | 22.44028 | 22053 ft | 284 kts | 319° |
| 2026-04-22 08:40 | 41.74488 | 22.42569 | 22059 ft | 284 kts | 319° |
| 2026-04-22 08:40 | 41.76135 | 22.41106 | 22061 ft | 285 kts | 319° |
| 2026-04-22 08:40 | 41.77792 | 22.39636 | 22061 ft | 285 kts | 319° |
| 2026-04-22 08:40 | 41.79441 | 22.38171 | 22101 ft | 284 kts | 318° |
| 2026-04-22 08:41 | 41.81097 | 22.36699 | 22071 ft | 286 kts | 318° |
| 2026-04-22 08:41 | 41.82751 | 22.35228 | 22056 ft | 286 kts | 318° |
| 2026-04-22 08:41 | 41.84408 | 22.33754 | 22054 ft | 286 kts | 318° |
| 2026-04-22 08:41 | 41.86064 | 22.32280 | 22058 ft | 286 kts | 318° |
| 2026-04-22 08:42 | 41.87717 | 22.30807 | 22058 ft | 286 kts | 318° |
| 2026-04-22 08:42 | 41.89357 | 22.29345 | 22059 ft | 286 kts | 318° |
| 2026-04-22 08:42 | 41.91034 | 22.27849 | 22064 ft | 286 kts | 318° |
| 2026-04-22 08:42 | 41.92687 | 22.26373 | 22059 ft | 286 kts | 318° |
| 2026-04-22 08:43 | 41.94345 | 22.24891 | 22049 ft | 286 kts | 318° |
| 2026-04-22 08:43 | 41.96001 | 22.23411 | 22059 ft | 286 kts | 318° |
| 2026-04-22 08:43 | 41.97661 | 22.21926 | 22053 ft | 286 kts | 318° |
| 2026-04-22 08:43 | 41.99312 | 22.20447 | 22051 ft | 286 kts | 318° |
| 2026-04-22 08:44 | 42.00968 | 22.18964 | 22058 ft | 286 kts | 318° |
| 2026-04-22 08:44 | 42.02628 | 22.17476 | 22060 ft | 286 kts | 318° |
| 2026-04-22 08:44 | 42.04280 | 22.15995 | 22069 ft | 285 kts | 317° |
| 2026-04-22 08:44 | 42.05926 | 22.14517 | 22056 ft | 284 kts | 317° |
| 2026-04-22 08:45 | 42.07574 | 22.13037 | 22057 ft | 285 kts | 317° |
| 2026-04-22 08:45 | 42.09215 | 22.11562 | 22057 ft | 283 kts | 318° |
| 2026-04-22 08:45 | 42.10846 | 22.10096 | 22054 ft | 282 kts | 318° |
| 2026-04-22 08:45 | 42.12483 | 22.08621 | 22049 ft | 283 kts | 317° |
| 2026-04-22 08:46 | 42.14123 | 22.07144 | 22055 ft | 283 kts | 317° |
| 2026-04-22 08:46 | 42.15718 | 22.05708 | 22061 ft | 284 kts | 318° |
| 2026-04-22 08:46 | 42.17354 | 22.04232 | 22058 ft | 283 kts | 317° |
| 2026-04-22 08:46 | 42.18994 | 22.02753 | 22060 ft | 284 kts | 317° |
| 2026-04-22 08:47 | 42.20654 | 22.01255 | 22068 ft | 283 kts | 317° |
| 2026-04-22 08:47 | 42.22272 | 21.99793 | 22065 ft | 283 kts | 317° |
| 2026-04-22 08:47 | 42.23908 | 21.98315 | 22060 ft | 282 kts | 317° |
| 2026-04-22 08:47 | 42.25540 | 21.96839 | 22058 ft | 283 kts | 317° |
| 2026-04-22 08:48 | 42.27177 | 21.95357 | 22089 ft | 283 kts | 318° |
| 2026-04-22 08:48 | 42.28819 | 21.93869 | 22070 ft | 286 kts | 318° |
| 2026-04-22 08:48 | 42.30471 | 21.92371 | 22064 ft | 287 kts | 318° |
| 2026-04-22 08:48 | 42.32126 | 21.90871 | 22081 ft | 286 kts | 318° |
| 2026-04-22 08:49 | 42.33759 | 21.89391 | 22066 ft | 285 kts | 318° |
| 2026-04-22 08:49 | 42.35358 | 21.87938 | 22069 ft | 286 kts | 318° |
| 2026-04-22 08:49 | 42.37019 | 21.86429 | 22072 ft | 286 kts | 318° |
| 2026-04-22 08:49 | 42.38672 | 21.84927 | 22070 ft | 286 kts | 318° |
| 2026-04-22 08:50 | 42.40320 | 21.83428 | 22070 ft | 286 kts | 318° |
| 2026-04-22 08:50 | 42.41970 | 21.81926 | 22076 ft | 286 kts | 318° |
| 2026-04-22 08:50 | 42.43617 | 21.80425 | 22075 ft | 285 kts | 318° |
| 2026-04-22 08:50 | 42.45267 | 21.78921 | 22086 ft | 286 kts | 318° |
| 2026-04-22 08:51 | 42.46918 | 21.77415 | 22075 ft | 286 kts | 318° |
| 2026-04-22 08:51 | 42.48564 | 21.75912 | 22077 ft | 286 kts | 318° |
| 2026-04-22 08:51 | 42.50206 | 21.74412 | 22080 ft | 285 kts | 319° |
| 2026-04-22 08:51 | 42.51858 | 21.72902 | 22097 ft | 288 kts | 319° |
| 2026-04-22 08:52 | 42.52963 | 21.71891 | 22081 ft | 290 kts | 319° |
| 2026-04-22 08:52 | 42.54638 | 21.70358 | 22084 ft | 292 kts | 319° |
| 2026-04-22 08:52 | 42.56330 | 21.68811 | 22084 ft | 294 kts | 319° |
| 2026-04-22 08:52 | 42.58027 | 21.67255 | 22083 ft | 295 kts | 319° |
| 2026-04-22 08:53 | 42.59725 | 21.65699 | 22087 ft | 294 kts | 319° |
| 2026-04-22 08:53 | 42.61416 | 21.64148 | 22086 ft | 294 kts | 319° |
| 2026-04-22 08:53 | 42.63120 | 21.62585 | 22088 ft | 295 kts | 319° |
| 2026-04-22 08:53 | 42.64814 | 21.61029 | 22086 ft | 295 kts | 319° |
| 2026-04-22 08:54 | 42.66503 | 21.59476 | 22084 ft | 295 kts | 319° |
| 2026-04-22 08:54 | 42.68199 | 21.57916 | 22073 ft | 295 kts | 319° |
| 2026-04-22 08:54 | 42.69895 | 21.56353 | 22093 ft | 295 kts | 319° |
| 2026-04-22 08:54 | 42.71599 | 21.54784 | 22093 ft | 295 kts | 319° |
| 2026-04-22 08:55 | 42.73296 | 21.53221 | 22092 ft | 294 kts | 319° |
| 2026-04-22 08:55 | 42.74994 | 21.51655 | 22080 ft | 294 kts | 319° |
| 2026-04-22 08:55 | 42.76690 | 21.50089 | 22089 ft | 294 kts | 319° |
| 2026-04-22 08:55 | 42.78385 | 21.48524 | 22088 ft | 295 kts | 319° |
| 2026-04-22 08:56 | 42.80081 | 21.46957 | 22080 ft | 294 kts | 319° |
| 2026-04-22 08:56 | 42.81776 | 21.45390 | 22097 ft | 295 kts | 319° |
| 2026-04-22 08:56 | 42.83475 | 21.43816 | 22089 ft | 296 kts | 319° |
| 2026-04-22 08:56 | 42.85160 | 21.42257 | 22078 ft | 294 kts | 319° |
| 2026-04-22 08:57 | 42.86851 | 21.40690 | 22092 ft | 294 kts | 319° |
| 2026-04-22 08:57 | 42.88545 | 21.39118 | 22095 ft | 294 kts | 319° |
| 2026-04-22 08:57 | 42.90236 | 21.37549 | 22092 ft | 294 kts | 319° |
| 2026-04-22 08:57 | 42.91930 | 21.35975 | 22093 ft | 295 kts | 319° |
| 2026-04-22 08:58 | 42.93622 | 21.34403 | 22084 ft | 294 kts | 319° |
| 2026-04-22 08:58 | 42.95319 | 21.32825 | 22082 ft | 295 kts | 319° |
| 2026-04-22 08:58 | 42.97009 | 21.31252 | 22095 ft | 295 kts | 320° |
| 2026-04-22 08:58 | 42.98717 | 21.29660 | 22096 ft | 298 kts | 320° |
| 2026-04-22 08:59 | 43.00433 | 21.28062 | 22085 ft | 300 kts | 320° |
| 2026-04-22 08:59 | 43.02152 | 21.26458 | 22082 ft | 302 kts | 320° |
| 2026-04-22 08:59 | 43.03866 | 21.24859 | 22094 ft | 303 kts | 320° |
| 2026-04-22 08:59 | 43.05607 | 21.23234 | 22084 ft | 302 kts | 320° |
| 2026-04-22 09:00 | 43.07340 | 21.21616 | 22098 ft | 302 kts | 320° |
| 2026-04-22 09:00 | 43.09071 | 21.19996 | 22084 ft | 301 kts | 321° |
| 2026-04-22 09:00 | 43.10800 | 21.18379 | 22093 ft | 301 kts | 321° |
| 2026-04-22 09:00 | 43.12529 | 21.16761 | 22092 ft | 301 kts | 321° |
| 2026-04-22 09:01 | 43.14260 | 21.15138 | 22097 ft | 302 kts | 321° |
| 2026-04-22 09:01 | 43.15991 | 21.13514 | 22101 ft | 301 kts | 321° |
| 2026-04-22 09:01 | 43.17698 | 21.11913 | 22098 ft | 302 kts | 321° |
| 2026-04-22 09:01 | 43.19433 | 21.10284 | 22100 ft | 302 kts | 321° |
| 2026-04-22 09:02 | 43.21164 | 21.08658 | 22111 ft | 301 kts | 321° |
| 2026-04-22 09:02 | 43.22898 | 21.07027 | 22099 ft | 303 kts | 321° |
| 2026-04-22 09:02 | 43.24642 | 21.05387 | 22101 ft | 305 kts | 321° |
| 2026-04-22 09:02 | 43.26393 | 21.03737 | 22107 ft | 306 kts | 321° |
| 2026-04-22 09:03 | 43.28146 | 21.02086 | 22108 ft | 305 kts | 321° |
| 2026-04-22 09:03 | 43.29894 | 21.00438 | 22096 ft | 305 kts | 321° |
| 2026-04-22 09:03 | 43.31645 | 20.98785 | 22110 ft | 305 kts | 321° |
| 2026-04-22 09:03 | 43.33353 | 20.97172 | 22105 ft | 304 kts | 321° |
| 2026-04-22 09:04 | 43.35095 | 20.95527 | 22106 ft | 305 kts | 321° |
| 2026-04-22 09:04 | 43.36847 | 20.93870 | 22109 ft | 305 kts | 321° |
| 2026-04-22 09:04 | 43.38591 | 20.92220 | 22110 ft | 305 kts | 321° |
| 2026-04-22 09:04 | 43.40334 | 20.90564 | 22117 ft | 304 kts | 320° |
| 2026-04-22 09:05 | 43.41968 | 20.88734 | 22114 ft | 302 kts | 314° |
| 2026-04-22 09:05 | 43.43499 | 20.86760 | 22113 ft | 301 kts | 313° |
| 2026-04-22 09:05 | 43.45021 | 20.84768 | 22126 ft | 302 kts | 313° |
| 2026-04-22 09:05 | 43.46546 | 20.82768 | 22117 ft | 304 kts | 313° |
| 2026-04-22 09:06 | 43.48077 | 20.80758 | 22111 ft | 303 kts | 313° |
| 2026-04-22 09:06 | 43.49604 | 20.78751 | 22123 ft | 304 kts | 313° |
| 2026-04-22 09:06 | 43.51131 | 20.76741 | 22119 ft | 304 kts | 313° |
| 2026-04-22 09:06 | 43.52646 | 20.74745 | 22120 ft | 304 kts | 313° |
| 2026-04-22 09:07 | 43.54175 | 20.72729 | 22117 ft | 304 kts | 313° |
| 2026-04-22 09:07 | 43.55697 | 20.70719 | 22122 ft | 304 kts | 313° |
| 2026-04-22 09:07 | 43.57226 | 20.68699 | 22124 ft | 304 kts | 313° |
| 2026-04-22 09:07 | 43.58731 | 20.66710 | 22121 ft | 304 kts | 313° |
| 2026-04-22 09:08 | 43.60253 | 20.64694 | 22129 ft | 304 kts | 313° |
| 2026-04-22 09:08 | 43.61780 | 20.62673 | 22128 ft | 304 kts | 313° |
| 2026-04-22 09:08 | 43.63303 | 20.60652 | 22138 ft | 303 kts | 313° |
| 2026-04-22 09:08 | 43.64827 | 20.58630 | 22142 ft | 304 kts | 313° |
| 2026-04-22 09:09 | 43.66351 | 20.56607 | 22140 ft | 304 kts | 313° |
| 2026-04-22 09:09 | 43.67876 | 20.54581 | 22141 ft | 304 kts | 313° |
| 2026-04-22 09:09 | 43.69390 | 20.52568 | 22142 ft | 304 kts | 313° |
| 2026-04-22 09:09 | 43.70914 | 20.50537 | 22157 ft | 305 kts | 313° |
| 2026-04-22 09:10 | 43.72446 | 20.48496 | 22145 ft | 307 kts | 313° |
| 2026-04-22 09:10 | 43.73982 | 20.46448 | 22148 ft | 307 kts | 313° |
| 2026-04-22 09:10 | 43.75517 | 20.44399 | 22144 ft | 306 kts | 313° |
| 2026-04-22 09:10 | 43.77051 | 20.42352 | 22147 ft | 306 kts | 313° |
| 2026-04-22 09:11 | 43.78587 | 20.40299 | 22147 ft | 306 kts | 313° |
| 2026-04-22 09:11 | 43.80116 | 20.38252 | 22148 ft | 306 kts | 313° |
| 2026-04-22 09:11 | 43.81652 | 20.36196 | 22150 ft | 307 kts | 313° |
| 2026-04-22 09:11 | 43.83180 | 20.34149 | 22142 ft | 306 kts | 313° |
| 2026-04-22 09:12 | 43.84710 | 20.32097 | 22141 ft | 306 kts | 313° |
| 2026-04-22 09:12 | 43.86238 | 20.30046 | 22145 ft | 306 kts | 313° |
| 2026-04-22 09:12 | 43.87770 | 20.27988 | 22144 ft | 306 kts | 313° |
| 2026-04-22 09:12 | 43.89300 | 20.25932 | 22149 ft | 306 kts | 313° |
| 2026-04-22 09:13 | 43.90825 | 20.23879 | 22146 ft | 305 kts | 313° |
| 2026-04-22 09:13 | 43.92346 | 20.21832 | 22147 ft | 305 kts | 313° |
| 2026-04-22 09:13 | 43.93866 | 20.19784 | 22149 ft | 305 kts | 313° |
| 2026-04-22 09:13 | 43.95385 | 20.17734 | 22146 ft | 305 kts | 313° |
| 2026-04-22 09:14 | 43.96906 | 20.15681 | 22161 ft | 305 kts | 313° |
| 2026-04-22 09:14 | 43.98434 | 20.13617 | 22153 ft | 308 kts | 313° |
| 2026-04-22 09:14 | 43.99973 | 20.11537 | 22157 ft | 309 kts | 313° |
| 2026-04-22 09:14 | 44.01509 | 20.09458 | 22150 ft | 308 kts | 313° |
| 2026-04-22 09:15 | 44.03022 | 20.07409 | 22151 ft | 308 kts | 313° |
| 2026-04-22 09:15 | 44.04564 | 20.05320 | 22155 ft | 308 kts | 313° |
| 2026-04-22 09:15 | 44.06101 | 20.03236 | 22156 ft | 308 kts | 313° |
| 2026-04-22 09:15 | 44.07612 | 20.01184 | 22154 ft | 308 kts | 313° |
| 2026-04-22 09:16 | 44.09124 | 19.99131 | 22155 ft | 307 kts | 313° |
| 2026-04-22 09:16 | 44.10651 | 19.97055 | 22157 ft | 307 kts | 313° |
| 2026-04-22 09:16 | 44.12179 | 19.94978 | 22168 ft | 307 kts | 313° |
| 2026-04-22 09:16 | 44.13688 | 19.92923 | 22160 ft | 308 kts | 313° |
| 2026-04-22 09:17 | 44.15215 | 19.90841 | 22154 ft | 307 kts | 313° |
| 2026-04-22 09:17 | 44.16738 | 19.88764 | 22163 ft | 307 kts | 313° |
| 2026-04-22 09:17 | 44.18264 | 19.86680 | 22163 ft | 307 kts | 313° |
| 2026-04-22 09:17 | 44.19792 | 19.84595 | 22156 ft | 307 kts | 313° |
| 2026-04-22 09:18 | 44.21286 | 19.82552 | 22162 ft | 307 kts | 313° |
| 2026-04-22 09:18 | 44.22834 | 19.80434 | 22176 ft | 308 kts | 313° |
| 2026-04-22 09:18 | 44.24367 | 19.78336 | 22157 ft | 310 kts | 313° |
| 2026-04-22 09:18 | 44.25883 | 19.76258 | 22164 ft | 309 kts | 313° |
| 2026-04-22 09:19 | 44.27420 | 19.74151 | 22173 ft | 309 kts | 313° |
| 2026-04-22 09:19 | 44.28951 | 19.72050 | 22166 ft | 309 kts | 313° |
| 2026-04-22 09:19 | 44.30483 | 19.69946 | 22176 ft | 309 kts | 313° |
| 2026-04-22 09:19 | 44.32012 | 19.67844 | 22184 ft | 309 kts | 313° |
| 2026-04-22 09:20 | 44.33543 | 19.65737 | 22168 ft | 309 kts | 313° |
| 2026-04-22 09:20 | 44.35072 | 19.63633 | 22173 ft | 309 kts | 313° |
| 2026-04-22 09:20 | 44.36607 | 19.61519 | 22169 ft | 309 kts | 313° |
| 2026-04-22 09:20 | 44.38131 | 19.59417 | 22162 ft | 309 kts | 313° |
| 2026-04-22 09:21 | 44.39659 | 19.57308 | 22181 ft | 309 kts | 313° |
| 2026-04-22 09:21 | 44.41187 | 19.55198 | 22167 ft | 309 kts | 313° |
| 2026-04-22 09:21 | 44.42715 | 19.53086 | 22171 ft | 309 kts | 313° |
| 2026-04-22 09:21 | 44.44242 | 19.50973 | 22169 ft | 309 kts | 313° |
| 2026-04-22 09:22 | 44.45767 | 19.48863 | 22172 ft | 309 kts | 313° |
| 2026-04-22 09:22 | 44.47292 | 19.46750 | 22173 ft | 308 kts | 313° |
| 2026-04-22 09:22 | 44.48815 | 19.44638 | 22179 ft | 308 kts | 313° |
| 2026-04-22 09:22 | 44.50342 | 19.42519 | 22181 ft | 310 kts | 313° |
| 2026-04-22 09:23 | 44.51881 | 19.40382 | 22175 ft | 311 kts | 313° |
| 2026-04-22 09:23 | 44.53412 | 19.38254 | 22176 ft | 310 kts | 313° |
| 2026-04-22 09:23 | 44.54937 | 19.36133 | 22177 ft | 310 kts | 313° |
| 2026-04-22 09:23 | 44.56470 | 19.34000 | 22177 ft | 310 kts | 313° |
| 2026-04-22 09:24 | 44.57982 | 19.31892 | 22184 ft | 310 kts | 313° |
| 2026-04-22 09:24 | 44.59532 | 19.29732 | 22178 ft | 310 kts | 313° |
| 2026-04-22 09:24 | 44.61045 | 19.27619 | 22180 ft | 310 kts | 312° |
| 2026-04-22 09:24 | 44.62521 | 19.25559 | 22180 ft | 310 kts | 312° |
| 2026-04-22 09:25 | 44.64047 | 19.23426 | 22173 ft | 310 kts | 312° |
| 2026-04-22 09:25 | 44.65577 | 19.21285 | 22188 ft | 310 kts | 312° |
| 2026-04-22 09:25 | 44.67111 | 19.19138 | 22188 ft | 311 kts | 312° |
| 2026-04-22 09:25 | 44.68648 | 19.16986 | 22187 ft | 311 kts | 313° |
| 2026-04-22 09:26 | 44.70179 | 19.14840 | 22179 ft | 311 kts | 312° |
| 2026-04-22 09:26 | 44.71691 | 19.12718 | 22171 ft | 311 kts | 312° |
| 2026-04-22 09:26 | 44.73218 | 19.10575 | 22173 ft | 311 kts | 312° |
| 2026-04-22 09:26 | 44.74751 | 19.08420 | 22176 ft | 311 kts | 312° |
| 2026-04-22 09:27 | 44.76285 | 19.06262 | 22186 ft | 313 kts | 313° |
| 2026-04-22 09:27 | 44.77833 | 19.04083 | 22179 ft | 316 kts | 313° |
| 2026-04-22 09:27 | 44.79382 | 19.01902 | 22177 ft | 315 kts | 313° |
| 2026-04-22 09:27 | 44.80932 | 18.99716 | 22182 ft | 315 kts | 313° |
| 2026-04-22 09:28 | 44.82480 | 18.97532 | 22179 ft | 315 kts | 313° |
| 2026-04-22 09:28 | 44.84028 | 18.95345 | 22182 ft | 315 kts | 313° |
| 2026-04-22 09:28 | 44.85572 | 18.93162 | 22183 ft | 315 kts | 313° |
| 2026-04-22 09:28 | 44.87124 | 18.90969 | 22182 ft | 315 kts | 313° |
| 2026-04-22 09:29 | 44.88668 | 18.88782 | 22186 ft | 315 kts | 313° |
| 2026-04-22 09:29 | 44.90191 | 18.86624 | 22186 ft | 315 kts | 313° |
| 2026-04-22 09:29 | 44.91735 | 18.84435 | 22185 ft | 315 kts | 313° |
| 2026-04-22 09:29 | 44.93280 | 18.82243 | 22184 ft | 315 kts | 313° |
| 2026-04-22 09:30 | 44.94823 | 18.80052 | 22187 ft | 315 kts | 313° |
| 2026-04-22 09:30 | 44.96369 | 18.77855 | 22187 ft | 315 kts | 313° |
| 2026-04-22 09:30 | 44.97909 | 18.75663 | 22186 ft | 315 kts | 313° |
| 2026-04-22 09:30 | 44.99454 | 18.73464 | 22186 ft | 315 kts | 313° |
| 2026-04-22 09:31 | 45.00971 | 18.71234 | 22190 ft | 315 kts | 311° |
| 2026-04-22 09:31 | 45.02480 | 18.68977 | 22200 ft | 317 kts | 312° |
| 2026-04-22 09:31 | 45.04016 | 18.66722 | 22177 ft | 319 kts | 313° |
| 2026-04-22 09:31 | 45.05555 | 18.64485 | 22187 ft | 319 kts | 313° |
| 2026-04-22 09:32 | 45.07108 | 18.62238 | 22192 ft | 319 kts | 313° |
| 2026-04-22 09:32 | 45.08662 | 18.59993 | 22189 ft | 319 kts | 313° |
| 2026-04-22 09:32 | 45.10214 | 18.57752 | 22188 ft | 319 kts | 313° |
| 2026-04-22 09:32 | 45.11768 | 18.55506 | 22196 ft | 319 kts | 313° |
| 2026-04-22 09:33 | 45.13321 | 18.53263 | 22186 ft | 319 kts | 313° |
| 2026-04-22 09:33 | 45.14876 | 18.51013 | 22190 ft | 319 kts | 313° |
| 2026-04-22 09:33 | 45.16433 | 18.48762 | 22189 ft | 319 kts | 313° |
| 2026-04-22 09:33 | 45.17985 | 18.46514 | 22191 ft | 320 kts | 313° |
| 2026-04-22 09:34 | 45.19539 | 18.44261 | 22191 ft | 319 kts | 313° |
| 2026-04-22 09:34 | 45.21093 | 18.42006 | 22189 ft | 320 kts | 313° |
| 2026-04-22 09:34 | 45.22629 | 18.39774 | 22194 ft | 320 kts | 313° |
| 2026-04-22 09:35 | 45.25742 | 18.35246 | 22195 ft | 320 kts | 313° |
| 2026-04-22 09:35 | 45.27294 | 18.32986 | 22191 ft | 320 kts | 313° |
| 2026-04-22 09:35 | 45.28847 | 18.30720 | 22196 ft | 320 kts | 313° |
| 2026-04-22 09:35 | 45.30403 | 18.28451 | 22195 ft | 321 kts | 313° |
| 2026-04-22 09:36 | 45.31955 | 18.26183 | 22184 ft | 320 kts | 313° |
| 2026-04-22 09:36 | 45.33463 | 18.23979 | 22191 ft | 320 kts | 313° |
| 2026-04-22 09:36 | 45.35013 | 18.21709 | 22195 ft | 320 kts | 313° |
| 2026-04-22 09:36 | 45.36040 | 18.20206 | 22196 ft | 320 kts | 313° |
| 2026-04-22 09:37 | 45.37592 | 18.17932 | 22203 ft | 320 kts | 313° |
| 2026-04-22 09:37 | 45.39134 | 18.15670 | 22199 ft | 320 kts | 313° |
| 2026-04-22 09:37 | 45.40683 | 18.13396 | 22204 ft | 320 kts | 313° |
| 2026-04-22 09:37 | 45.42739 | 18.10373 | 22201 ft | 321 kts | 313° |
| 2026-04-22 09:38 | 45.43788 | 18.08829 | 22201 ft | 321 kts | 313° |
| 2026-04-22 09:38 | 45.45337 | 18.06549 | 22203 ft | 321 kts | 313° |
| 2026-04-22 09:38 | 45.46889 | 18.04262 | 22207 ft | 321 kts | 313° |
| 2026-04-22 09:38 | 45.48439 | 18.01976 | 22201 ft | 321 kts | 313° |
| 2026-04-22 09:39 | 45.49987 | 17.99692 | 22199 ft | 321 kts | 313° |
| 2026-04-22 09:39 | 45.51538 | 17.97399 | 22208 ft | 321 kts | 313° |
| 2026-04-22 09:39 | 45.53088 | 17.95108 | 22202 ft | 321 kts | 313° |
| 2026-04-22 09:39 | 45.54635 | 17.92817 | 22210 ft | 321 kts | 314° |
| 2026-04-22 09:40 | 45.56191 | 17.90511 | 22197 ft | 323 kts | 314° |
| 2026-04-22 09:40 | 45.57738 | 17.88218 | 22209 ft | 325 kts | 314° |
| 2026-04-22 09:40 | 45.59310 | 17.85885 | 22214 ft | 327 kts | 314° |
| 2026-04-22 09:40 | 45.60886 | 17.83544 | 22205 ft | 328 kts | 315° |
| 2026-04-22 09:41 | 45.62470 | 17.81188 | 22214 ft | 329 kts | 315° |
| 2026-04-22 09:41 | 45.64085 | 17.78786 | 22204 ft | 331 kts | 315° |
| 2026-04-22 09:41 | 45.65660 | 17.76439 | 22207 ft | 332 kts | 315° |
| 2026-04-22 09:41 | 45.67280 | 17.74022 | 22215 ft | 332 kts | 315° |
| 2026-04-22 09:42 | 45.68860 | 17.71664 | 22207 ft | 333 kts | 315° |
| 2026-04-22 09:42 | 45.70458 | 17.69278 | 22212 ft | 333 kts | 315° |
| 2026-04-22 09:42 | 45.72062 | 17.66881 | 22204 ft | 334 kts | 315° |
| 2026-04-22 09:42 | 45.73665 | 17.64482 | 22206 ft | 334 kts | 315° |
| 2026-04-22 09:43 | 45.75275 | 17.62070 | 22215 ft | 335 kts | 315° |
| 2026-04-22 09:43 | 45.76885 | 17.59656 | 22208 ft | 335 kts | 315° |
| 2026-04-22 09:43 | 45.78497 | 17.57237 | 22208 ft | 336 kts | 315° |
| 2026-04-22 09:43 | 45.80111 | 17.54813 | 22215 ft | 336 kts | 315° |
| 2026-04-22 09:44 | 45.81726 | 17.52386 | 22205 ft | 336 kts | 315° |
| 2026-04-22 09:44 | 45.83337 | 17.49962 | 22210 ft | 336 kts | 316° |
| 2026-04-22 09:44 | 45.84947 | 17.47534 | 22211 ft | 337 kts | 316° |
| 2026-04-22 09:44 | 45.86560 | 17.45103 | 22210 ft | 337 kts | 315° |
| 2026-04-22 09:45 | 45.88179 | 17.42661 | 22217 ft | 338 kts | 316° |
| 2026-04-22 09:45 | 45.89781 | 17.40240 | 22216 ft | 338 kts | 315° |
| 2026-04-22 09:45 | 45.91402 | 17.37790 | 22221 ft | 339 kts | 316° |
| 2026-04-22 09:45 | 45.93032 | 17.35325 | 22200 ft | 339 kts | 316° |
| 2026-04-22 09:46 | 45.94655 | 17.32866 | 22216 ft | 339 kts | 316° |
| 2026-04-22 09:46 | 45.96281 | 17.30401 | 22216 ft | 339 kts | 316° |
| 2026-04-22 09:46 | 45.97920 | 17.27913 | 22212 ft | 339 kts | 316° |
| 2026-04-22 09:46 | 45.99522 | 17.25480 | 22203 ft | 339 kts | 316° |
| 2026-04-22 09:47 | 46.01119 | 17.23054 | 22210 ft | 339 kts | 316° |
| 2026-04-22 09:47 | 46.02735 | 17.20594 | 22212 ft | 339 kts | 316° |
| 2026-04-22 09:47 | 46.04360 | 17.18120 | 22217 ft | 339 kts | 316° |
| 2026-04-22 09:47 | 46.05979 | 17.15651 | 22221 ft | 339 kts | 316° |
| 2026-04-22 09:48 | 46.07580 | 17.13209 | 22219 ft | 339 kts | 316° |
| 2026-04-22 09:48 | 46.09218 | 17.10707 | 22214 ft | 339 kts | 316° |
| 2026-04-22 09:48 | 46.10813 | 17.08270 | 22224 ft | 341 kts | 316° |
| 2026-04-22 09:48 | 46.12446 | 17.05771 | 22224 ft | 341 kts | 316° |
| 2026-04-22 09:49 | 46.14070 | 17.03282 | 22223 ft | 341 kts | 316° |
| 2026-04-22 09:49 | 46.15696 | 17.00790 | 22220 ft | 341 kts | 316° |
| 2026-04-22 09:49 | 46.17317 | 16.98302 | 22223 ft | 341 kts | 316° |
| 2026-04-22 09:49 | 46.18940 | 16.95810 | 22207 ft | 340 kts | 316° |
| 2026-04-22 09:50 | 46.20555 | 16.93326 | 22219 ft | 340 kts | 316° |
| 2026-04-22 09:50 | 46.22176 | 16.90834 | 22221 ft | 340 kts | 316° |
| 2026-04-22 09:50 | 46.23795 | 16.88339 | 22221 ft | 340 kts | 316° |
| 2026-04-22 09:50 | 46.25415 | 16.85842 | 22220 ft | 340 kts | 316° |
| 2026-04-22 09:51 | 46.27032 | 16.83348 | 22217 ft | 340 kts | 316° |
| 2026-04-22 09:51 | 46.28650 | 16.80849 | 22217 ft | 340 kts | 316° |
| 2026-04-22 09:51 | 46.30269 | 16.78345 | 22217 ft | 340 kts | 316° |
| 2026-04-22 09:51 | 46.31884 | 16.75846 | 22218 ft | 340 kts | 316° |
| 2026-04-22 09:52 | 46.33498 | 16.73346 | 22218 ft | 340 kts | 316° |
| 2026-04-22 09:52 | 46.35113 | 16.70843 | 22219 ft | 340 kts | 316° |
| 2026-04-22 09:52 | 46.36727 | 16.68338 | 22217 ft | 340 kts | 316° |
| 2026-04-22 09:52 | 46.38344 | 16.65828 | 22204 ft | 341 kts | 316° |
| 2026-04-22 09:53 | 46.39959 | 16.63315 | 22230 ft | 340 kts | 316° |
| 2026-04-22 09:53 | 46.41561 | 16.60823 | 22215 ft | 340 kts | 316° |
| 2026-04-22 09:53 | 46.43180 | 16.58301 | 22237 ft | 340 kts | 316° |
| 2026-04-22 09:53 | 46.44796 | 16.55782 | 22219 ft | 340 kts | 316° |
| 2026-04-22 09:54 | 46.46411 | 16.53262 | 22213 ft | 341 kts | 316° |
| 2026-04-22 09:54 | 46.48026 | 16.50740 | 22226 ft | 341 kts | 316° |
| 2026-04-22 09:54 | 46.49633 | 16.48228 | 22226 ft | 341 kts | 316° |
| 2026-04-22 09:54 | 46.51201 | 16.45773 | 22230 ft | 340 kts | 316° |
| 2026-04-22 09:55 | 46.52813 | 16.43249 | 22217 ft | 340 kts | 316° |
| 2026-04-22 09:55 | 46.54422 | 16.40725 | 22237 ft | 340 kts | 316° |
| 2026-04-22 09:55 | 46.56032 | 16.38198 | 22219 ft | 340 kts | 316° |
| 2026-04-22 09:55 | 46.57627 | 16.35694 | 22231 ft | 340 kts | 316° |
| 2026-04-22 09:56 | 46.59229 | 16.33175 | 22223 ft | 339 kts | 316° |
| 2026-04-22 09:56 | 46.60832 | 16.30652 | 22230 ft | 340 kts | 316° |
| 2026-04-22 09:56 | 46.62430 | 16.28135 | 22219 ft | 340 kts | 316° |
| 2026-04-22 09:56 | 46.64035 | 16.25604 | 22218 ft | 340 kts | 316° |
| 2026-04-22 09:57 | 46.65638 | 16.23074 | 22223 ft | 340 kts | 316° |
| 2026-04-22 09:57 | 46.67238 | 16.20546 | 22222 ft | 340 kts | 316° |
| 2026-04-22 09:57 | 46.68846 | 16.18003 | 22226 ft | 340 kts | 316° |
| 2026-04-22 09:57 | 46.70449 | 16.15468 | 22227 ft | 340 kts | 316° |
| 2026-04-22 09:58 | 46.72053 | 16.12927 | 22225 ft | 340 kts | 316° |
| 2026-04-22 09:58 | 46.73653 | 16.10391 | 22229 ft | 340 kts | 316° |
| 2026-04-22 09:58 | 46.75235 | 16.07878 | 22225 ft | 340 kts | 316° |
| 2026-04-22 09:58 | 46.76835 | 16.05336 | 22230 ft | 340 kts | 316° |
| 2026-04-22 09:59 | 46.78433 | 16.02795 | 22227 ft | 340 kts | 316° |
| 2026-04-22 09:59 | 46.80036 | 16.00244 | 22230 ft | 340 kts | 316° |
| 2026-04-22 09:59 | 46.81619 | 15.97674 | 22225 ft | 340 kts | 315° |
| 2026-04-22 09:59 | 46.83202 | 15.95105 | 22230 ft | 340 kts | 316° |
| 2026-04-22 10:00 | 46.84807 | 15.92564 | 22227 ft | 340 kts | 316° |
| 2026-04-22 10:00 | 46.86420 | 15.90039 | 22239 ft | 340 kts | 316° |
| 2026-04-22 10:00 | 46.88039 | 15.87519 | 22233 ft | 340 kts | 317° |
| 2026-04-22 10:00 | 46.89659 | 15.85000 | 22239 ft | 340 kts | 316° |
| 2026-04-22 10:01 | 46.91296 | 15.82453 | 22246 ft | 340 kts | 316° |
| 2026-04-22 10:01 | 46.92885 | 15.79984 | 22242 ft | 340 kts | 316° |
| 2026-04-22 10:01 | 46.94502 | 15.77467 | 22250 ft | 340 kts | 316° |
| 2026-04-22 10:01 | 46.96120 | 15.74948 | 22247 ft | 339 kts | 316° |
| 2026-04-22 10:02 | 46.97733 | 15.72432 | 22238 ft | 339 kts | 316° |
| 2026-04-22 10:02 | 46.99347 | 15.69912 | 22249 ft | 339 kts | 316° |
| 2026-04-22 10:02 | 47.00960 | 15.67390 | 22253 ft | 339 kts | 316° |
| 2026-04-22 10:02 | 47.02574 | 15.64864 | 22251 ft | 339 kts | 316° |
| 2026-04-22 10:03 | 47.04184 | 15.62343 | 22252 ft | 339 kts | 316° |
| 2026-04-22 10:03 | 47.05793 | 15.59822 | 22252 ft | 339 kts | 316° |
| 2026-04-22 10:03 | 47.07424 | 15.57261 | 22253 ft | 339 kts | 316° |
| 2026-04-22 10:03 | 47.09020 | 15.54754 | 22254 ft | 339 kts | 316° |
| 2026-04-22 10:04 | 47.10621 | 15.52236 | 22254 ft | 339 kts | 316° |
| 2026-04-22 10:04 | 47.12232 | 15.49700 | 22242 ft | 339 kts | 316° |
| 2026-04-22 10:04 | 47.13840 | 15.47164 | 22243 ft | 339 kts | 316° |
| 2026-04-22 10:04 | 47.15426 | 15.44662 | 22236 ft | 339 kts | 316° |
| 2026-04-22 10:05 | 47.16991 | 15.42190 | 22219 ft | 338 kts | 316° |
| 2026-04-22 10:05 | 47.18591 | 15.39659 | 22238 ft | 337 kts | 316° |
| 2026-04-22 10:05 | 47.20192 | 15.37127 | 22237 ft | 338 kts | 316° |
| 2026-04-22 10:05 | 47.21792 | 15.34592 | 22237 ft | 338 kts | 316° |
| 2026-04-22 10:06 | 47.23393 | 15.32054 | 22240 ft | 338 kts | 316° |
| 2026-04-22 10:06 | 47.24991 | 15.29516 | 22238 ft | 338 kts | 316° |
| 2026-04-22 10:06 | 47.26564 | 15.27015 | 22236 ft | 338 kts | 316° |
| 2026-04-22 10:06 | 47.28160 | 15.24478 | 22237 ft | 338 kts | 316° |
| 2026-04-22 10:07 | 47.29758 | 15.21933 | 22234 ft | 338 kts | 316° |
| 2026-04-22 10:07 | 47.31354 | 15.19387 | 22230 ft | 338 kts | 316° |
| 2026-04-22 10:07 | 47.32947 | 15.16845 | 22237 ft | 337 kts | 316° |
| 2026-04-22 10:07 | 47.34537 | 15.14304 | 22236 ft | 338 kts | 316° |
| 2026-04-22 10:08 | 47.36132 | 15.11755 | 22233 ft | 338 kts | 316° |
| 2026-04-22 10:08 | 47.37723 | 15.09209 | 22228 ft | 335 kts | 316° |
| 2026-04-22 10:08 | 47.39299 | 15.06682 | 22241 ft | 335 kts | 316° |
| 2026-04-22 10:08 | 47.40880 | 15.04147 | 22240 ft | 335 kts | 316° |
| 2026-04-22 10:09 | 47.42457 | 15.01615 | 22249 ft | 335 kts | 316° |
| 2026-04-22 10:09 | 47.44025 | 14.99095 | 22249 ft | 335 kts | 316° |
| 2026-04-22 10:09 | 47.45612 | 14.96543 | 22251 ft | 336 kts | 316° |
| 2026-04-22 10:09 | 47.47193 | 14.93996 | 22250 ft | 336 kts | 316° |
| 2026-04-22 10:10 | 47.48772 | 14.91450 | 22248 ft | 337 kts | 316° |
| 2026-04-22 10:10 | 47.50337 | 14.88924 | 22251 ft | 337 kts | 316° |
| 2026-04-22 10:10 | 47.51922 | 14.86365 | 22256 ft | 337 kts | 316° |
| 2026-04-22 10:10 | 47.53505 | 14.83805 | 22265 ft | 337 kts | 316° |
| 2026-04-22 10:11 | 47.55088 | 14.81243 | 22263 ft | 337 kts | 316° |
| 2026-04-22 10:11 | 47.56670 | 14.78680 | 22237 ft | 337 kts | 316° |
| 2026-04-22 10:11 | 47.58247 | 14.76123 | 22252 ft | 335 kts | 316° |
| 2026-04-22 10:11 | 47.59811 | 14.73584 | 22275 ft | 336 kts | 316° |
| 2026-04-22 10:12 | 47.61410 | 14.70986 | 22264 ft | 337 kts | 316° |
| 2026-04-22 10:12 | 47.62973 | 14.68445 | 22277 ft | 338 kts | 316° |
| 2026-04-22 10:12 | 47.64555 | 14.65870 | 22266 ft | 337 kts | 316° |
| 2026-04-22 10:12 | 47.66128 | 14.63304 | 22275 ft | 337 kts | 316° |
| 2026-04-22 10:13 | 47.67658 | 14.60808 | 22268 ft | 337 kts | 316° |
| 2026-04-22 10:13 | 47.69233 | 14.58236 | 22280 ft | 337 kts | 316° |
| 2026-04-22 10:13 | 47.70813 | 14.55653 | 22278 ft | 337 kts | 316° |
| 2026-04-22 10:13 | 47.72385 | 14.53079 | 22274 ft | 337 kts | 316° |
| 2026-04-22 10:14 | 47.73450 | 14.51336 | 22271 ft | 337 kts | 316° |
| 2026-04-22 10:14 | 47.75028 | 14.48750 | 22278 ft | 338 kts | 316° |
| 2026-04-22 10:14 | 47.76610 | 14.46155 | 22287 ft | 339 kts | 316° |
| 2026-04-22 10:14 | 47.78164 | 14.43601 | 22290 ft | 339 kts | 316° |
| 2026-04-22 10:15 | 47.79746 | 14.41001 | 22280 ft | 339 kts | 316° |
| 2026-04-22 10:15 | 47.81325 | 14.38404 | 22282 ft | 338 kts | 316° |
| 2026-04-22 10:15 | 47.82898 | 14.35813 | 22281 ft | 337 kts | 316° |
| 2026-04-22 10:15 | 47.84472 | 14.33217 | 22292 ft | 338 kts | 316° |
| 2026-04-22 10:16 | 47.86053 | 14.30609 | 22291 ft | 339 kts | 316° |
| 2026-04-22 10:16 | 47.87632 | 14.28001 | 22286 ft | 339 kts | 316° |
| 2026-04-22 10:16 | 47.89210 | 14.25391 | 22296 ft | 339 kts | 316° |
| 2026-04-22 10:16 | 47.90790 | 14.22775 | 22295 ft | 339 kts | 316° |
| 2026-04-22 10:17 | 47.92369 | 14.20158 | 22294 ft | 339 kts | 316° |
| 2026-04-22 10:17 | 47.93944 | 14.17544 | 22298 ft | 339 kts | 316° |
| 2026-04-22 10:17 | 47.95520 | 14.14929 | 22300 ft | 339 kts | 316° |
| 2026-04-22 10:17 | 47.97096 | 14.12310 | 22268 ft | 339 kts | 316° |
| 2026-04-22 10:18 | 47.98668 | 14.09692 | 22298 ft | 338 kts | 317° |
| 2026-04-22 10:18 | 48.00241 | 14.07073 | 22303 ft | 339 kts | 317° |
| 2026-04-22 10:18 | 48.01815 | 14.04450 | 22286 ft | 339 kts | 317° |
| 2026-04-22 10:18 | 48.03389 | 14.01821 | 22290 ft | 339 kts | 316° |
| 2026-04-22 10:19 | 48.04963 | 13.99192 | 22284 ft | 340 kts | 316° |
| 2026-04-22 10:19 | 48.06536 | 13.96562 | 22288 ft | 340 kts | 316° |
| 2026-04-22 10:19 | 48.08110 | 13.93929 | 22288 ft | 339 kts | 316° |
| 2026-04-22 10:19 | 48.09683 | 13.91294 | 22288 ft | 339 kts | 316° |
| 2026-04-22 10:20 | 48.11239 | 13.88683 | 22292 ft | 339 kts | 316° |
| 2026-04-22 10:20 | 48.12808 | 13.86050 | 22292 ft | 340 kts | 316° |
| 2026-04-22 10:20 | 48.14379 | 13.83409 | 22288 ft | 339 kts | 316° |
| 2026-04-22 10:20 | 48.15934 | 13.80793 | 22290 ft | 339 kts | 316° |
| 2026-04-22 10:21 | 48.17482 | 13.78187 | 22266 ft | 340 kts | 316° |
| 2026-04-22 10:21 | 48.19050 | 13.75545 | 22287 ft | 339 kts | 316° |
| 2026-04-22 10:21 | 48.20618 | 13.72898 | 22291 ft | 339 kts | 316° |
| 2026-04-22 10:21 | 48.22189 | 13.70244 | 22290 ft | 340 kts | 316° |
| 2026-04-22 10:22 | 48.23757 | 13.67594 | 22297 ft | 340 kts | 316° |
| 2026-04-22 10:22 | 48.25329 | 13.64934 | 22280 ft | 340 kts | 316° |
| 2026-04-22 10:22 | 48.26897 | 13.62277 | 22282 ft | 340 kts | 316° |
| 2026-04-22 10:22 | 48.28450 | 13.59644 | 22287 ft | 340 kts | 316° |
| 2026-04-22 10:23 | 48.30019 | 13.56980 | 22290 ft | 341 kts | 316° |
| 2026-04-22 10:23 | 48.31591 | 13.54308 | 22288 ft | 341 kts | 316° |
| 2026-04-22 10:23 | 48.33163 | 13.51635 | 22288 ft | 342 kts | 316° |
| 2026-04-22 10:23 | 48.34737 | 13.48954 | 22290 ft | 342 kts | 316° |
| 2026-04-22 10:24 | 48.36310 | 13.46275 | 22286 ft | 342 kts | 316° |
| 2026-04-22 10:24 | 48.37878 | 13.43600 | 22266 ft | 342 kts | 316° |
| 2026-04-22 10:24 | 48.39451 | 13.40912 | 22287 ft | 341 kts | 316° |
| 2026-04-22 10:24 | 48.41022 | 13.38226 | 22291 ft | 342 kts | 316° |
| 2026-04-22 10:25 | 48.42588 | 13.35544 | 22292 ft | 342 kts | 316° |
| 2026-04-22 10:25 | 48.44170 | 13.32860 | 22291 ft | 342 kts | 317° |
| 2026-04-22 10:25 | 48.45787 | 13.30268 | 22291 ft | 341 kts | 319° |
| 2026-04-22 10:25 | 48.47437 | 13.27702 | 22296 ft | 341 kts | 319° |
| 2026-04-22 10:26 | 48.49097 | 13.25150 | 22282 ft | 340 kts | 319° |
| 2026-04-22 10:26 | 48.50754 | 13.22615 | 22287 ft | 340 kts | 319° |
| 2026-04-22 10:26 | 48.52418 | 13.20076 | 22289 ft | 340 kts | 319° |
| 2026-04-22 10:26 | 48.54077 | 13.17547 | 22288 ft | 339 kts | 319° |
| 2026-04-22 10:27 | 48.55714 | 13.15047 | 22287 ft | 340 kts | 319° |
| 2026-04-22 10:27 | 48.57402 | 13.12468 | 22291 ft | 340 kts | 319° |
| 2026-04-22 10:27 | 48.59061 | 13.09932 | 22289 ft | 340 kts | 319° |
| 2026-04-22 10:27 | 48.60728 | 13.07380 | 22283 ft | 340 kts | 319° |
| 2026-04-22 10:28 | 48.62380 | 13.04848 | 22289 ft | 340 kts | 319° |
| 2026-04-22 10:28 | 48.64043 | 13.02297 | 22290 ft | 340 kts | 319° |
| 2026-04-22 10:28 | 48.65702 | 12.99750 | 22289 ft | 341 kts | 319° |
| 2026-04-22 10:28 | 48.67366 | 12.97192 | 22288 ft | 341 kts | 319° |
| 2026-04-22 10:29 | 48.69027 | 12.94634 | 22290 ft | 341 kts | 319° |
| 2026-04-22 10:29 | 48.70690 | 12.92071 | 22291 ft | 341 kts | 319° |
| 2026-04-22 10:29 | 48.72344 | 12.89519 | 22291 ft | 341 kts | 319° |
| 2026-04-22 10:29 | 48.74008 | 12.86949 | 22291 ft | 341 kts | 319° |
| 2026-04-22 10:30 | 48.75668 | 12.84383 | 22288 ft | 341 kts | 319° |
| 2026-04-22 10:30 | 48.77325 | 12.81818 | 22293 ft | 341 kts | 319° |
| 2026-04-22 10:30 | 48.78987 | 12.79243 | 22293 ft | 341 kts | 319° |
| 2026-04-22 10:30 | 48.80636 | 12.76685 | 22292 ft | 341 kts | 319° |
| 2026-04-22 10:31 | 48.82237 | 12.74199 | 22293 ft | 341 kts | 319° |
| 2026-04-22 10:31 | 48.83892 | 12.71625 | 22293 ft | 341 kts | 319° |
| 2026-04-22 10:31 | 48.85548 | 12.69047 | 22294 ft | 341 kts | 319° |
| 2026-04-22 10:31 | 48.87204 | 12.66466 | 22293 ft | 341 kts | 319° |
| 2026-04-22 10:32 | 48.88859 | 12.63885 | 22296 ft | 341 kts | 319° |
| 2026-04-22 10:32 | 48.90541 | 12.61259 | 22296 ft | 341 kts | 319° |
| 2026-04-22 10:32 | 48.92197 | 12.58672 | 22297 ft | 341 kts | 319° |
| 2026-04-22 10:32 | 48.93841 | 12.56100 | 22295 ft | 341 kts | 319° |
| 2026-04-22 10:33 | 48.95493 | 12.53511 | 22299 ft | 341 kts | 319° |
| 2026-04-22 10:33 | 48.97139 | 12.50929 | 22299 ft | 341 kts | 319° |
| 2026-04-22 10:33 | 48.98793 | 12.48333 | 22300 ft | 341 kts | 319° |
| 2026-04-22 10:33 | 49.00441 | 12.45742 | 22298 ft | 341 kts | 319° |
| 2026-04-22 10:34 | 49.02089 | 12.43150 | 22302 ft | 341 kts | 319° |
| 2026-04-22 10:34 | 49.03739 | 12.40553 | 22279 ft | 341 kts | 319° |
| 2026-04-22 10:34 | 49.05385 | 12.37957 | 22298 ft | 340 kts | 319° |
| 2026-04-22 10:34 | 49.07028 | 12.35363 | 22302 ft | 341 kts | 319° |
| 2026-04-22 10:35 | 49.08674 | 12.32761 | 22292 ft | 340 kts | 319° |
| 2026-04-22 10:35 | 49.10319 | 12.30160 | 22301 ft | 340 kts | 319° |
| 2026-04-22 10:35 | 49.11958 | 12.27566 | 22302 ft | 340 kts | 319° |
| 2026-04-22 10:35 | 49.13592 | 12.24976 | 22302 ft | 340 kts | 319° |
| 2026-04-22 10:36 | 49.15236 | 12.22368 | 22307 ft | 341 kts | 319° |
| 2026-04-22 10:36 | 49.16881 | 12.19756 | 22300 ft | 341 kts | 319° |
| 2026-04-22 10:36 | 49.18522 | 12.17146 | 22309 ft | 340 kts | 319° |
| 2026-04-22 10:36 | 49.20163 | 12.14534 | 22314 ft | 341 kts | 319° |
| 2026-04-22 10:37 | 49.21810 | 12.11910 | 22311 ft | 341 kts | 319° |
| 2026-04-22 10:37 | 49.25086 | 12.06681 | 22310 ft | 341 kts | 319° |
| 2026-04-22 10:37 | 49.26730 | 12.04053 | 22297 ft | 341 kts | 318° |
| 2026-04-22 10:38 | 49.28368 | 12.01431 | 22312 ft | 341 kts | 318° |
| 2026-04-22 10:38 | 49.30002 | 11.98813 | 22310 ft | 342 kts | 318° |
| 2026-04-22 10:38 | 49.31643 | 11.96181 | 22311 ft | 342 kts | 318° |
| 2026-04-22 10:38 | 49.33289 | 11.93539 | 22311 ft | 342 kts | 318° |
| 2026-04-22 10:39 | 49.34887 | 11.90972 | 22311 ft | 343 kts | 318° |
| 2026-04-22 10:39 | 49.36536 | 11.88319 | 22318 ft | 344 kts | 318° |
| 2026-04-22 10:39 | 49.38185 | 11.85662 | 22313 ft | 344 kts | 318° |
| 2026-04-22 10:39 | 49.39843 | 11.82990 | 22316 ft | 345 kts | 318° |
| 2026-04-22 10:40 | 49.41491 | 11.80330 | 22314 ft | 345 kts | 318° |
| 2026-04-22 10:40 | 49.43149 | 11.77651 | 22316 ft | 345 kts | 318° |
| 2026-04-22 10:40 | 49.44802 | 11.74977 | 22314 ft | 345 kts | 318° |
| 2026-04-22 10:40 | 49.46458 | 11.72297 | 22312 ft | 345 kts | 318° |
| 2026-04-22 10:41 | 49.48094 | 11.69646 | 22294 ft | 345 kts | 318° |
| 2026-04-22 10:41 | 49.49743 | 11.66969 | 22312 ft | 345 kts | 318° |
| 2026-04-22 10:41 | 49.51396 | 11.64284 | 22315 ft | 345 kts | 318° |
| 2026-04-22 10:41 | 49.53046 | 11.61602 | 22315 ft | 345 kts | 318° |
| 2026-04-22 10:42 | 49.54693 | 11.58921 | 22318 ft | 345 kts | 318° |
| 2026-04-22 10:42 | 49.56342 | 11.56235 | 22321 ft | 345 kts | 318° |
| 2026-04-22 10:42 | 49.57992 | 11.53543 | 22314 ft | 345 kts | 318° |
| 2026-04-22 10:42 | 49.59643 | 11.50847 | 22315 ft | 345 kts | 317° |
| 2026-04-22 10:43 | 49.61290 | 11.48154 | 22319 ft | 346 kts | 317° |
| 2026-04-22 10:43 | 49.62941 | 11.45454 | 22313 ft | 346 kts | 317° |
| 2026-04-22 10:43 | 49.64584 | 11.42762 | 22320 ft | 346 kts | 317° |
| 2026-04-22 10:43 | 49.66231 | 11.40060 | 22330 ft | 346 kts | 317° |
| 2026-04-22 10:44 | 49.67708 | 11.37635 | 22320 ft | 346 kts | 317° |
| 2026-04-22 10:44 | 49.69358 | 11.34925 | 22325 ft | 346 kts | 317° |
| 2026-04-22 10:44 | 49.71003 | 11.32218 | 22315 ft | 346 kts | 317° |
| 2026-04-22 10:44 | 49.72648 | 11.29509 | 22325 ft | 346 kts | 317° |
| 2026-04-22 10:45 | 49.74295 | 11.26795 | 22322 ft | 346 kts | 317° |
| 2026-04-22 10:45 | 49.75932 | 11.24090 | 22337 ft | 346 kts | 317° |
| 2026-04-22 10:45 | 49.77573 | 11.21367 | 22332 ft | 346 kts | 316° |
| 2026-04-22 10:45 | 49.79209 | 11.18636 | 22332 ft | 346 kts | 317° |
| 2026-04-22 10:46 | 49.80861 | 11.15931 | 22327 ft | 345 kts | 317° |
| 2026-04-22 10:46 | 49.82524 | 11.13239 | 22332 ft | 345 kts | 317° |
| 2026-04-22 10:46 | 49.84185 | 11.10562 | 22331 ft | 345 kts | 318° |
| 2026-04-22 10:46 | 49.85796 | 11.07971 | 22333 ft | 345 kts | 318° |
| 2026-04-22 10:47 | 49.87464 | 11.05288 | 22334 ft | 345 kts | 318° |
| 2026-04-22 10:47 | 49.89130 | 11.02600 | 22332 ft | 345 kts | 317° |
| 2026-04-22 10:47 | 49.90791 | 10.99916 | 22337 ft | 345 kts | 317° |
| 2026-04-22 10:47 | 49.92455 | 10.97229 | 22336 ft | 346 kts | 317° |
| 2026-04-22 10:48 | 49.94122 | 10.94538 | 22331 ft | 345 kts | 317° |
| 2026-04-22 10:48 | 49.95783 | 10.91852 | 22339 ft | 345 kts | 317° |
| 2026-04-22 10:48 | 49.97437 | 10.89179 | 22340 ft | 345 kts | 317° |
| 2026-04-22 10:48 | 49.99097 | 10.86489 | 22339 ft | 345 kts | 317° |
| 2026-04-22 10:49 | 50.00760 | 10.83794 | 22341 ft | 346 kts | 317° |
| 2026-04-22 10:49 | 50.02422 | 10.81097 | 22350 ft | 346 kts | 317° |
| 2026-04-22 10:49 | 50.04085 | 10.78397 | 22349 ft | 346 kts | 317° |
| 2026-04-22 10:49 | 50.05185 | 10.76606 | 22344 ft | 346 kts | 317° |
| 2026-04-22 10:50 | 50.06850 | 10.73894 | 22347 ft | 346 kts | 317° |
| 2026-04-22 10:50 | 50.08510 | 10.71182 | 22346 ft | 347 kts | 317° |
| 2026-04-22 10:50 | 50.10167 | 10.68462 | 22346 ft | 346 kts | 317° |
| 2026-04-22 10:50 | 50.11829 | 10.65741 | 22358 ft | 346 kts | 317° |
| 2026-04-22 10:51 | 50.13492 | 10.63022 | 22353 ft | 346 kts | 317° |
| 2026-04-22 10:51 | 50.15109 | 10.60376 | 22357 ft | 346 kts | 317° |
| 2026-04-22 10:51 | 50.16770 | 10.57657 | 22333 ft | 346 kts | 317° |
| 2026-04-22 10:51 | 50.18430 | 10.54925 | 22352 ft | 347 kts | 317° |
| 2026-04-22 10:52 | 50.20093 | 10.52186 | 22359 ft | 347 kts | 317° |
| 2026-04-22 10:52 | 50.21751 | 10.49455 | 22359 ft | 347 kts | 317° |
| 2026-04-22 10:52 | 50.23418 | 10.46734 | 22361 ft | 346 kts | 318° |
| 2026-04-22 10:52 | 50.25104 | 10.44037 | 22358 ft | 346 kts | 318° |
| 2026-04-22 10:53 | 50.26781 | 10.41353 | 22355 ft | 346 kts | 318° |
| 2026-04-22 10:53 | 50.28461 | 10.38658 | 22358 ft | 346 kts | 318° |
| 2026-04-22 10:53 | 50.30139 | 10.35962 | 22358 ft | 346 kts | 318° |
| 2026-04-22 10:53 | 50.31803 | 10.33285 | 22360 ft | 346 kts | 318° |
| 2026-04-22 10:54 | 50.33478 | 10.30587 | 22363 ft | 346 kts | 318° |
| 2026-04-22 10:54 | 50.35133 | 10.27845 | 22356 ft | 348 kts | 315° |
| 2026-04-22 10:54 | 50.36630 | 10.25036 | 22354 ft | 348 kts | 313° |
| 2026-04-22 10:54 | 50.38220 | 10.22199 | 22361 ft | 346 kts | 317° |
| 2026-04-22 10:55 | 50.39894 | 10.19483 | 22350 ft | 346 kts | 318° |
| 2026-04-22 10:55 | 50.41569 | 10.16774 | 22363 ft | 346 kts | 318° |
| 2026-04-22 10:55 | 50.43269 | 10.14024 | 22360 ft | 346 kts | 318° |
| 2026-04-22 10:55 | 50.44917 | 10.11259 | 22356 ft | 347 kts | 317° |
| 2026-04-22 10:56 | 50.46544 | 10.08476 | 22357 ft | 347 kts | 317° |
| 2026-04-22 10:56 | 50.48168 | 10.05704 | 22370 ft | 347 kts | 317° |
| 2026-04-22 10:56 | 50.49803 | 10.02913 | 22361 ft | 347 kts | 317° |
| 2026-04-22 10:56 | 50.51419 | 10.00157 | 22369 ft | 347 kts | 317° |
| 2026-04-22 10:57 | 50.53077 | 9.97326 | 22353 ft | 348 kts | 317° |
| 2026-04-22 10:57 | 50.54688 | 9.94474 | 22351 ft | 349 kts | 314° |
| 2026-04-22 10:57 | 50.56240 | 9.91535 | 22372 ft | 350 kts | 314° |
| 2026-04-22 10:57 | 50.57795 | 9.88588 | 22366 ft | 350 kts | 314° |
| 2026-04-22 10:58 | 50.59354 | 9.85637 | 22358 ft | 350 kts | 314° |
| 2026-04-22 10:58 | 50.60893 | 9.82721 | 22374 ft | 350 kts | 314° |
| 2026-04-22 10:58 | 50.62469 | 9.79736 | 22357 ft | 350 kts | 314° |
| 2026-04-22 10:58 | 50.64020 | 9.76792 | 22362 ft | 350 kts | 314° |
| 2026-04-22 10:59 | 50.65569 | 9.73852 | 22363 ft | 350 kts | 314° |
| 2026-04-22 10:59 | 50.67121 | 9.70896 | 22361 ft | 350 kts | 314° |
| 2026-04-22 10:59 | 50.68668 | 9.67934 | 22369 ft | 351 kts | 314° |
| 2026-04-22 10:59 | 50.70219 | 9.64970 | 22366 ft | 351 kts | 314° |
| 2026-04-22 11:00 | 50.71775 | 9.61996 | 22368 ft | 351 kts | 314° |
| 2026-04-22 11:00 | 50.73331 | 9.59019 | 22368 ft | 351 kts | 314° |
| 2026-04-22 11:00 | 50.74880 | 9.56052 | 22367 ft | 351 kts | 314° |
| 2026-04-22 11:00 | 50.76435 | 9.53077 | 22366 ft | 351 kts | 314° |
| 2026-04-22 11:01 | 50.77991 | 9.50100 | 22374 ft | 351 kts | 314° |
| 2026-04-22 11:01 | 50.79546 | 9.47119 | 22369 ft | 352 kts | 314° |
| 2026-04-22 11:01 | 50.81099 | 9.44142 | 22369 ft | 352 kts | 314° |
| 2026-04-22 11:01 | 50.82638 | 9.41188 | 22338 ft | 351 kts | 314° |
| 2026-04-22 11:02 | 50.84138 | 9.38304 | 22357 ft | 350 kts | 314° |
| 2026-04-22 11:02 | 50.85682 | 9.35332 | 22384 ft | 349 kts | 314° |
| 2026-04-22 11:02 | 50.87230 | 9.32350 | 22382 ft | 350 kts | 314° |
| 2026-04-22 11:02 | 50.88774 | 9.29371 | 22378 ft | 350 kts | 314° |
| 2026-04-22 11:03 | 50.90316 | 9.26393 | 22380 ft | 350 kts | 314° |
| 2026-04-22 11:03 | 50.91861 | 9.23404 | 22383 ft | 350 kts | 314° |
| 2026-04-22 11:03 | 50.93405 | 9.20414 | 22386 ft | 350 kts | 314° |
| 2026-04-22 11:03 | 50.94942 | 9.17435 | 22384 ft | 350 kts | 314° |
| 2026-04-22 11:04 | 50.96486 | 9.14439 | 22384 ft | 350 kts | 314° |
| 2026-04-22 11:04 | 50.98024 | 9.11450 | 22387 ft | 350 kts | 314° |
| 2026-04-22 11:04 | 50.99568 | 9.08448 | 22382 ft | 351 kts | 314° |
| 2026-04-22 11:04 | 51.01109 | 9.05445 | 22383 ft | 351 kts | 314° |
| 2026-04-22 11:05 | 51.02631 | 9.02477 | 22388 ft | 351 kts | 314° |
| 2026-04-22 11:05 | 51.04192 | 8.99428 | 22383 ft | 351 kts | 314° |
| 2026-04-22 11:05 | 51.05736 | 8.96411 | 22381 ft | 351 kts | 314° |
| 2026-04-22 11:05 | 51.07274 | 8.93401 | 22382 ft | 351 kts | 314° |
| 2026-04-22 11:06 | 51.08810 | 8.90389 | 22388 ft | 351 kts | 314° |
| 2026-04-22 11:06 | 51.10349 | 8.87369 | 22385 ft | 351 kts | 314° |
| 2026-04-22 11:06 | 51.11866 | 8.84391 | 22382 ft | 351 kts | 314° |
| 2026-04-22 11:06 | 51.13405 | 8.81364 | 22378 ft | 351 kts | 314° |
| 2026-04-22 11:07 | 51.14907 | 8.78361 | 22377 ft | 352 kts | 313° |
| 2026-04-22 11:07 | 51.16433 | 8.75312 | 22377 ft | 352 kts | 314° |
| 2026-04-22 11:07 | 51.17968 | 8.72265 | 22374 ft | 352 kts | 314° |
| 2026-04-22 11:07 | 51.19502 | 8.69225 | 22375 ft | 352 kts | 314° |
| 2026-04-22 11:08 | 51.21035 | 8.66187 | 22375 ft | 352 kts | 314° |
| 2026-04-22 11:08 | 51.22573 | 8.63139 | 22376 ft | 352 kts | 314° |
| 2026-04-22 11:08 | 51.24108 | 8.60098 | 22376 ft | 352 kts | 314° |
| 2026-04-22 11:08 | 51.25642 | 8.57052 | 22367 ft | 351 kts | 314° |
| 2026-04-22 11:09 | 51.27169 | 8.54018 | 22370 ft | 351 kts | 314° |
| 2026-04-22 11:09 | 51.28653 | 8.51066 | 22371 ft | 351 kts | 314° |
| 2026-04-22 11:09 | 51.30180 | 8.48023 | 22378 ft | 351 kts | 314° |
| 2026-04-22 11:09 | 51.31701 | 8.44988 | 22372 ft | 352 kts | 314° |
| 2026-04-22 11:10 | 51.33230 | 8.41935 | 22373 ft | 352 kts | 314° |
| 2026-04-22 11:10 | 51.34768 | 8.38872 | 22375 ft | 353 kts | 314° |
| 2026-04-22 11:10 | 51.36307 | 8.35814 | 22376 ft | 353 kts | 314° |
| 2026-04-22 11:10 | 51.37850 | 8.32750 | 22373 ft | 353 kts | 314° |
| 2026-04-22 11:11 | 51.39391 | 8.29689 | 22374 ft | 353 kts | 314° |
| 2026-04-22 11:11 | 51.40934 | 8.26620 | 22374 ft | 354 kts | 314° |
| 2026-04-22 11:11 | 51.42482 | 8.23541 | 22375 ft | 354 kts | 314° |
| 2026-04-22 11:11 | 51.44022 | 8.20473 | 22379 ft | 354 kts | 314° |
| 2026-04-22 11:12 | 51.45552 | 8.17421 | 22361 ft | 354 kts | 314° |
| 2026-04-22 11:12 | 51.47093 | 8.14342 | 22378 ft | 354 kts | 314° |
| 2026-04-22 11:12 | 51.48628 | 8.11274 | 22386 ft | 354 kts | 314° |
| 2026-04-22 11:12 | 51.50159 | 8.08211 | 22383 ft | 354 kts | 314° |
| 2026-04-22 11:13 | 51.51698 | 8.05123 | 22383 ft | 354 kts | 314° |
| 2026-04-22 11:13 | 51.53234 | 8.02039 | 22384 ft | 354 kts | 314° |
| 2026-04-22 11:13 | 51.54773 | 7.98946 | 22383 ft | 354 kts | 314° |
| 2026-04-22 11:13 | 51.56307 | 7.95861 | 22385 ft | 353 kts | 314° |
| 2026-04-22 11:14 | 51.57820 | 7.92811 | 22386 ft | 353 kts | 314° |
| 2026-04-22 11:14 | 51.59368 | 7.89688 | 22392 ft | 353 kts | 314° |
| 2026-04-22 11:14 | 51.60900 | 7.86594 | 22389 ft | 353 kts | 314° |
| 2026-04-22 11:14 | 51.62427 | 7.83504 | 22384 ft | 353 kts | 314° |
| 2026-04-22 11:15 | 51.63955 | 7.80411 | 22384 ft | 353 kts | 314° |
| 2026-04-22 11:15 | 51.65459 | 7.77362 | 22386 ft | 353 kts | 314° |
| 2026-04-22 11:15 | 51.66999 | 7.74236 | 22377 ft | 353 kts | 314° |
| 2026-04-22 11:15 | 51.68503 | 7.71180 | 22391 ft | 353 kts | 314° |
| 2026-04-22 11:16 | 51.70025 | 7.68081 | 22393 ft | 353 kts | 314° |
| 2026-04-22 11:16 | 51.71552 | 7.64971 | 22393 ft | 354 kts | 314° |
| 2026-04-22 11:16 | 51.73036 | 7.61943 | 22393 ft | 354 kts | 314° |
| 2026-04-22 11:16 | 51.74563 | 7.58824 | 22392 ft | 354 kts | 314° |
| 2026-04-22 11:17 | 51.76088 | 7.55704 | 22389 ft | 354 kts | 314° |
| 2026-04-22 11:17 | 51.77615 | 7.52577 | 22395 ft | 354 kts | 314° |
| 2026-04-22 11:17 | 51.79160 | 7.49410 | 22401 ft | 354 kts | 314° |
| 2026-04-22 11:17 | 51.80684 | 7.46282 | 22390 ft | 354 kts | 314° |
| 2026-04-22 11:18 | 51.82207 | 7.43151 | 22384 ft | 354 kts | 314° |
| 2026-04-22 11:18 | 51.83721 | 7.40035 | 22397 ft | 354 kts | 314° |
| 2026-04-22 11:18 | 51.85241 | 7.36904 | 22394 ft | 354 kts | 314° |
| 2026-04-22 11:18 | 51.86760 | 7.33770 | 22394 ft | 354 kts | 314° |
| 2026-04-22 11:19 | 51.88274 | 7.30643 | 22389 ft | 354 kts | 313° |
| 2026-04-22 11:19 | 51.89788 | 7.27511 | 22402 ft | 353 kts | 313° |
| 2026-04-22 11:19 | 51.91303 | 7.24373 | 22402 ft | 353 kts | 313° |
| 2026-04-22 11:19 | 51.92815 | 7.21238 | 22398 ft | 353 kts | 313° |
| 2026-04-22 11:20 | 51.94327 | 7.18098 | 22398 ft | 354 kts | 313° |
| 2026-04-22 11:20 | 51.95841 | 7.14952 | 22399 ft | 354 kts | 313° |
| 2026-04-22 11:20 | 51.97356 | 7.11797 | 22400 ft | 354 kts | 313° |
| 2026-04-22 11:20 | 51.98866 | 7.08650 | 22399 ft | 354 kts | 313° |
| 2026-04-22 11:21 | 52.00381 | 7.05491 | 22399 ft | 354 kts | 313° |
| 2026-04-22 11:21 | 52.01859 | 7.02402 | 22400 ft | 354 kts | 313° |
| 2026-04-22 11:21 | 52.03371 | 6.99240 | 22399 ft | 354 kts | 313° |
| 2026-04-22 11:21 | 52.04883 | 6.96074 | 22399 ft | 354 kts | 313° |
| 2026-04-22 11:22 | 52.06392 | 6.92909 | 22397 ft | 354 kts | 313° |
| 2026-04-22 11:22 | 52.07905 | 6.89735 | 22396 ft | 354 kts | 313° |
| 2026-04-22 11:22 | 52.09413 | 6.86566 | 22378 ft | 354 kts | 313° |
| 2026-04-22 11:22 | 52.10857 | 6.83307 | 22402 ft | 356 kts | 307° |
| 2026-04-22 11:23 | 52.12121 | 6.79830 | 22395 ft | 359 kts | 303° |
| 2026-04-22 11:23 | 52.13271 | 6.76211 | 22401 ft | 360 kts | 301° |
| 2026-04-22 11:23 | 52.14332 | 6.72637 | 22395 ft | 361 kts | 300° |
| 2026-04-22 11:23 | 52.15415 | 6.68957 | 22395 ft | 361 kts | 300° |
| 2026-04-22 11:24 | 52.16514 | 6.65321 | 22394 ft | 360 kts | 301° |
| 2026-04-22 11:24 | 52.17617 | 6.61641 | 22393 ft | 361 kts | 300° |
| 2026-04-22 11:24 | 52.18656 | 6.57908 | 22394 ft | 363 kts | 296° |
| 2026-04-22 11:24 | 52.19480 | 6.54000 | 22392 ft | 365 kts | 291° |
| 2026-04-22 11:25 | 52.20192 | 6.50068 | 22251 ft | 358 kts | 290° |
| 2026-04-22 11:25 | 52.20889 | 6.46177 | 21729 ft | 358 kts | 290° |
| 2026-04-22 11:25 | 52.21583 | 6.42280 | 21205 ft | 357 kts | 290° |
| 2026-04-22 11:25 | 52.22042 | 6.39693 | 20864 ft | 357 kts | 289° |
| 2026-04-22 11:26 | 52.22726 | 6.35818 | 20399 ft | 355 kts | 289° |
| 2026-04-22 11:26 | 52.23421 | 6.31872 | 20092 ft | 357 kts | 289° |
| 2026-04-22 11:26 | 52.24102 | 6.27991 | 19964 ft | 355 kts | 289° |
| 2026-04-22 11:26 | 52.24812 | 6.24150 | 19840 ft | 352 kts | 292° |
| 2026-04-22 11:27 | 52.25618 | 6.20382 | 19702 ft | 351 kts | 293° |
| 2026-04-22 11:27 | 52.26433 | 6.16641 | 19564 ft | 350 kts | 293° |
| 2026-04-22 11:27 | 52.27247 | 6.12902 | 19420 ft | 348 kts | 292° |
| 2026-04-22 11:27 | 52.28056 | 6.09177 | 19230 ft | 348 kts | 292° |
| 2026-04-22 11:28 | 52.28863 | 6.05452 | 19050 ft | 347 kts | 292° |
| 2026-04-22 11:28 | 52.29664 | 6.01750 | 18879 ft | 346 kts | 292° |
| 2026-04-22 11:28 | 52.30465 | 5.98042 | 18712 ft | 345 kts | 292° |
| 2026-04-22 11:28 | 52.31262 | 5.94345 | 18530 ft | 344 kts | 292° |
| 2026-04-22 11:29 | 52.32056 | 5.90654 | 18347 ft | 344 kts | 292° |
| 2026-04-22 11:29 | 52.32848 | 5.86962 | 18189 ft | 343 kts | 292° |
| 2026-04-22 11:29 | 52.33637 | 5.83283 | 18015 ft | 342 kts | 292° |
| 2026-04-22 11:29 | 52.34421 | 5.79614 | 17860 ft | 341 kts | 291° |
| 2026-04-22 11:30 | 52.35171 | 5.76102 | 17721 ft | 340 kts | 291° |
| 2026-04-22 11:30 | 52.35950 | 5.72451 | 17572 ft | 340 kts | 291° |
| 2026-04-22 11:30 | 52.36724 | 5.68810 | 17425 ft | 339 kts | 291° |
| 2026-04-22 11:30 | 52.37497 | 5.65168 | 17281 ft | 338 kts | 291° |
| 2026-04-22 11:31 | 52.38267 | 5.61531 | 17169 ft | 337 kts | 291° |
| 2026-04-22 11:31 | 52.39030 | 5.57893 | 17045 ft | 337 kts | 291° |
| 2026-04-22 11:31 | 52.39777 | 5.54270 | 16935 ft | 335 kts | 291° |
| 2026-04-22 11:31 | 52.40520 | 5.50703 | 16830 ft | 334 kts | 291° |
| 2026-04-22 11:32 | 52.41283 | 5.47062 | 16728 ft | 334 kts | 291° |
| 2026-04-22 11:32 | 52.42037 | 5.43465 | 16600 ft | 334 kts | 290° |
| 2026-04-22 11:32 | 52.42782 | 5.39910 | 16491 ft | 334 kts | 290° |
| 2026-04-22 11:32 | 52.43533 | 5.36320 | 16397 ft | 333 kts | 290° |
| 2026-04-22 11:33 | 52.44221 | 5.33026 | 16304 ft | 333 kts | 290° |
| 2026-04-22 11:33 | 52.44967 | 5.29450 | 16210 ft | 332 kts | 290° |
| 2026-04-22 11:33 | 52.45719 | 5.25837 | 16108 ft | 331 kts | 290° |
| 2026-04-22 11:33 | 52.46463 | 5.22259 | 16011 ft | 331 kts | 290° |
| 2026-04-22 11:34 | 52.47204 | 5.18688 | 15916 ft | 331 kts | 290° |
| 2026-04-22 11:34 | 52.47944 | 5.15116 | 15831 ft | 330 kts | 290° |
| 2026-04-22 11:34 | 52.48669 | 5.11603 | 15742 ft | 330 kts | 290° |
| 2026-04-22 11:34 | 52.49404 | 5.08040 | 15664 ft | 329 kts | 290° |
| 2026-04-22 11:35 | 52.50127 | 5.04528 | 15599 ft | 329 kts | 290° |
| 2026-04-22 11:35 | 52.50857 | 5.00975 | 15517 ft | 329 kts | 290° |
| 2026-04-22 11:35 | 52.51587 | 4.97414 | 15463 ft | 328 kts | 290° |
| 2026-04-22 11:35 | 52.52315 | 4.93863 | 15391 ft | 328 kts | 290° |
| 2026-04-22 11:36 | 52.53040 | 4.90316 | 15316 ft | 328 kts | 289° |
| 2026-04-22 11:36 | 52.53874 | 4.86790 | 15257 ft | 327 kts | 296° |
| 2026-04-22 11:36 | 52.54944 | 4.83505 | 15200 ft | 325 kts | 303° |
| 2026-04-22 11:36 | 52.56137 | 4.80483 | 15127 ft | 324 kts | 306° |
| 2026-04-22 11:37 | 52.57405 | 4.77418 | 15059 ft | 324 kts | 306° |
| 2026-04-22 11:37 | 52.58682 | 4.74370 | 15002 ft | 324 kts | 307° |
| 2026-04-22 11:37 | 52.59963 | 4.71332 | 14939 ft | 323 kts | 307° |
| 2026-04-22 11:37 | 52.61246 | 4.68298 | 14877 ft | 323 kts | 307° |
| 2026-04-22 11:38 | 52.62510 | 4.65307 | 14833 ft | 323 kts | 307° |
| 2026-04-22 11:38 | 52.63791 | 4.62280 | 14807 ft | 322 kts | 307° |
| 2026-04-22 11:38 | 52.66349 | 4.56220 | 14684 ft | 322 kts | 307° |
| 2026-04-22 11:39 | 52.67623 | 4.53196 | 14638 ft | 321 kts | 307° |
| 2026-04-22 11:39 | 52.68894 | 4.50175 | 14588 ft | 321 kts | 307° |
| 2026-04-22 11:39 | 52.70164 | 4.47151 | 14547 ft | 320 kts | 306° |
| 2026-04-22 11:39 | 52.71425 | 4.44123 | 14506 ft | 320 kts | 306° |
| 2026-04-22 11:40 | 52.72685 | 4.41094 | 14461 ft | 320 kts | 306° |
| 2026-04-22 11:40 | 52.73913 | 4.38033 | 14410 ft | 321 kts | 302° |
| 2026-04-22 11:40 | 52.74927 | 4.34750 | 14372 ft | 321 kts | 295° |
| 2026-04-22 11:40 | 52.75735 | 4.31311 | 14333 ft | 321 kts | 290° |
| 2026-04-22 11:41 | 52.76471 | 4.27820 | 14304 ft | 321 kts | 290° |
| 2026-04-22 11:41 | 52.77192 | 4.24325 | 14263 ft | 321 kts | 289° |
| 2026-04-22 11:41 | 52.77905 | 4.20838 | 14229 ft | 321 kts | 289° |
| 2026-04-22 11:41 | 52.78616 | 4.17337 | 14199 ft | 321 kts | 289° |
| 2026-04-22 11:42 | 52.79323 | 4.13840 | 14171 ft | 321 kts | 289° |
| 2026-04-22 11:42 | 52.80029 | 4.10345 | 14141 ft | 321 kts | 289° |
| 2026-04-22 11:42 | 52.80732 | 4.06847 | 14107 ft | 320 kts | 289° |
| 2026-04-22 11:42 | 52.81435 | 4.03354 | 14072 ft | 320 kts | 289° |
| 2026-04-22 11:43 | 52.82143 | 3.99815 | 14052 ft | 320 kts | 289° |
| 2026-04-22 11:43 | 52.82842 | 3.96320 | 14034 ft | 320 kts | 289° |
| 2026-04-22 11:43 | 52.83537 | 3.92836 | 14013 ft | 319 kts | 289° |
| 2026-04-22 11:43 | 52.84224 | 3.89384 | 13983 ft | 319 kts | 289° |
| 2026-04-22 11:44 | 52.84878 | 3.86094 | 13963 ft | 319 kts | 289° |
| 2026-04-22 11:44 | 52.85572 | 3.82601 | 13933 ft | 319 kts | 289° |
| 2026-04-22 11:44 | 52.86262 | 3.79109 | 13894 ft | 319 kts | 288° |
| 2026-04-22 11:44 | 52.86952 | 3.75618 | 13876 ft | 319 kts | 288° |
| 2026-04-22 11:45 | 52.87639 | 3.72134 | 13859 ft | 319 kts | 288° |
| 2026-04-22 11:45 | 52.88328 | 3.68641 | 13838 ft | 319 kts | 288° |
| 2026-04-22 11:45 | 52.89013 | 3.65155 | 13824 ft | 318 kts | 288° |
| 2026-04-22 11:45 | 52.89697 | 3.61669 | 13800 ft | 318 kts | 288° |
| 2026-04-22 11:46 | 52.90379 | 3.58186 | 13766 ft | 318 kts | 288° |
| 2026-04-22 11:46 | 52.91061 | 3.54689 | 13751 ft | 319 kts | 288° |
| 2026-04-22 11:46 | 52.91741 | 3.51205 | 13722 ft | 318 kts | 288° |
| 2026-04-22 11:46 | 52.92421 | 3.47710 | 13714 ft | 318 kts | 288° |
| 2026-04-22 11:47 | 52.93099 | 3.44224 | 13687 ft | 318 kts | 288° |
| 2026-04-22 11:47 | 52.93776 | 3.40733 | 13667 ft | 317 kts | 288° |
| 2026-04-22 11:47 | 52.94450 | 3.37253 | 13648 ft | 318 kts | 288° |
| 2026-04-22 11:47 | 52.95126 | 3.33761 | 13636 ft | 318 kts | 288° |
| 2026-04-22 11:48 | 52.95797 | 3.30277 | 13617 ft | 317 kts | 288° |
| 2026-04-22 11:48 | 52.96471 | 3.26779 | 13586 ft | 318 kts | 288° |
| 2026-04-22 11:48 | 52.97139 | 3.23304 | 13598 ft | 316 kts | 288° |
| 2026-04-22 11:48 | 52.97804 | 3.19834 | 13568 ft | 313 kts | 287° |
| 2026-04-22 11:49 | 52.98441 | 3.16387 | 13306 ft | 312 kts | 287° |
| 2026-04-22 11:49 | 52.99076 | 3.12935 | 13024 ft | 312 kts | 287° |
| 2026-04-22 11:49 | 52.99721 | 3.09498 | 12776 ft | 312 kts | 287° |
| 2026-04-22 11:49 | 53.00370 | 3.06067 | 12549 ft | 311 kts | 287° |
| 2026-04-22 11:50 | 53.01014 | 3.02681 | 12347 ft | 310 kts | 287° |
| 2026-04-22 11:50 | 53.01661 | 2.99272 | 12110 ft | 309 kts | 287° |
| 2026-04-22 11:50 | 53.02306 | 2.95869 | 11895 ft | 309 kts | 287° |
| 2026-04-22 11:50 | 53.02949 | 2.92476 | 11698 ft | 307 kts | 287° |
| 2026-04-22 11:51 | 53.03588 | 2.89102 | 11513 ft | 306 kts | 287° |
| 2026-04-22 11:51 | 53.04212 | 2.85782 | 11327 ft | 305 kts | 287° |
| 2026-04-22 11:51 | 53.04845 | 2.82425 | 11119 ft | 305 kts | 287° |
| 2026-04-22 11:51 | 53.05477 | 2.79072 | 10935 ft | 304 kts | 287° |
| 2026-04-22 11:52 | 53.06105 | 2.75730 | 10766 ft | 302 kts | 287° |
| 2026-04-22 11:52 | 53.06729 | 2.72400 | 10585 ft | 301 kts | 287° |
| 2026-04-22 11:52 | 53.07349 | 2.69088 | 10481 ft | 298 kts | 287° |
| 2026-04-22 11:52 | 53.07959 | 2.65821 | 10456 ft | 294 kts | 287° |
| 2026-04-22 11:53 | 53.08565 | 2.62575 | 10459 ft | 294 kts | 287° |
| 2026-04-22 11:53 | 53.09170 | 2.59316 | 10459 ft | 294 kts | 287° |
| 2026-04-22 11:53 | 53.09772 | 2.56066 | 10461 ft | 293 kts | 287° |
| 2026-04-22 11:53 | 53.10374 | 2.52814 | 10464 ft | 295 kts | 287° |
| 2026-04-22 11:54 | 53.10870 | 2.49482 | 10463 ft | 301 kts | 280° |
| 2026-04-22 11:54 | 53.11195 | 2.46022 | 10463 ft | 303 kts | 277° |
| 2026-04-22 11:54 | 53.11479 | 2.42564 | 10458 ft | 302 kts | 277° |
| 2026-04-22 11:54 | 53.11764 | 2.39104 | 10460 ft | 301 kts | 277° |
| 2026-04-22 11:55 | 53.12050 | 2.35639 | 10459 ft | 303 kts | 277° |
| 2026-04-22 11:55 | 53.12336 | 2.32173 | 10461 ft | 301 kts | 277° |
| 2026-04-22 11:55 | 53.12620 | 2.28718 | 10461 ft | 302 kts | 277° |
| 2026-04-22 11:55 | 53.12903 | 2.25252 | 10457 ft | 301 kts | 277° |
| 2026-04-22 11:56 | 53.13186 | 2.21796 | 10458 ft | 302 kts | 277° |
| 2026-04-22 11:56 | 53.13469 | 2.18331 | 10463 ft | 302 kts | 277° |
| 2026-04-22 11:56 | 53.13750 | 2.14862 | 10464 ft | 302 kts | 277° |
| 2026-04-22 11:56 | 53.14030 | 2.11399 | 10464 ft | 303 kts | 277° |
| 2026-04-22 11:57 | 53.14310 | 2.07923 | 10464 ft | 302 kts | 277° |
| 2026-04-22 11:57 | 53.14588 | 2.04453 | 10465 ft | 302 kts | 277° |
| 2026-04-22 11:57 | 53.14866 | 2.00981 | 10466 ft | 304 kts | 276° |
| 2026-04-22 11:57 | 53.15142 | 1.97504 | 10459 ft | 302 kts | 276° |
| 2026-04-22 11:58 | 53.15416 | 1.94027 | 10470 ft | 302 kts | 276° |
| 2026-04-22 11:58 | 53.15689 | 1.90546 | 10469 ft | 303 kts | 276° |
| 2026-04-22 11:58 | 53.15958 | 1.87115 | 10467 ft | 305 kts | 276° |
| 2026-04-22 11:58 | 53.16234 | 1.83578 | 10457 ft | 308 kts | 276° |
| 2026-04-22 11:59 | 53.16510 | 1.80028 | 10473 ft | 310 kts | 276° |
| 2026-04-22 11:59 | 53.16785 | 1.76480 | 10468 ft | 309 kts | 276° |
| 2026-04-22 11:59 | 53.17062 | 1.72916 | 10468 ft | 310 kts | 276° |
| 2026-04-22 11:59 | 53.17335 | 1.69376 | 10467 ft | 307 kts | 276° |
| 2026-04-22 12:00 | 53.17606 | 1.65822 | 10469 ft | 310 kts | 276° |
| 2026-04-22 12:00 | 53.17876 | 1.62277 | 10473 ft | 308 kts | 276° |
| 2026-04-22 12:00 | 53.18146 | 1.58735 | 10469 ft | 308 kts | 276° |
| 2026-04-22 12:00 | 53.18414 | 1.55183 | 10470 ft | 309 kts | 276° |
| 2026-04-22 12:01 | 53.18680 | 1.51631 | 10472 ft | 310 kts | 276° |
| 2026-04-22 12:01 | 53.18948 | 1.48073 | 10468 ft | 308 kts | 276° |
| 2026-04-22 12:01 | 53.19213 | 1.44500 | 10468 ft | 310 kts | 275° |
| 2026-04-22 12:01 | 53.19387 | 1.42146 | 10460 ft | 310 kts | 275° |
| 2026-04-22 12:02 | 53.19741 | 1.37371 | 10467 ft | 308 kts | 276° |
| 2026-04-22 12:02 | 53.19914 | 1.35038 | 10468 ft | 308 kts | 276° |
| 2026-04-22 12:02 | 53.20175 | 1.31474 | 10474 ft | 310 kts | 276° |
| 2026-04-22 12:02 | 53.20435 | 1.27917 | 10471 ft | 309 kts | 276° |
| 2026-04-22 12:03 | 53.20692 | 1.24373 | 10469 ft | 308 kts | 276° |
| 2026-04-22 12:03 | 53.20950 | 1.20821 | 10470 ft | 310 kts | 275° |
| 2026-04-22 12:03 | 53.21205 | 1.17259 | 10465 ft | 309 kts | 275° |
| 2026-04-22 12:03 | 53.21459 | 1.13703 | 10469 ft | 309 kts | 275° |
| 2026-04-22 12:04 | 53.21716 | 1.10130 | 10470 ft | 311 kts | 275° |
| 2026-04-22 12:04 | 53.21972 | 1.06550 | 10468 ft | 309 kts | 275° |
| 2026-04-22 12:04 | 53.22222 | 1.03043 | 10466 ft | 308 kts | 275° |
| 2026-04-22 12:04 | 53.22439 | 0.99987 | 10459 ft | 311 kts | 275° |
| 2026-04-22 12:05 | 53.22691 | 0.96412 | 10467 ft | 308 kts | 275° |
| 2026-04-22 12:05 | 53.22940 | 0.92854 | 10462 ft | 309 kts | 275° |
| 2026-04-22 12:05 | 53.23199 | 0.89114 | 10229 ft | 295 kts | 275° |
| 2026-04-22 12:05 | 53.23421 | 0.85921 | 9308 ft | 296 kts | 275° |
| 2026-04-22 12:06 | 53.23653 | 0.82560 | 8396 ft | 294 kts | 275° |
| 2026-04-22 12:06 | 53.23887 | 0.79172 | 7464 ft | 294 kts | 275° |
| 2026-04-22 12:06 | 53.24118 | 0.75794 | 6576 ft | 292 kts | 275° |
| 2026-04-22 12:06 | 53.24346 | 0.72450 | 5683 ft | 289 kts | 276° |
| 2026-04-22 12:07 | 53.24568 | 0.69164 | 5164 ft | 276 kts | 276° |
| 2026-04-22 12:07 | 53.24790 | 0.65854 | 5064 ft | 299 kts | 276° |
| 2026-04-22 12:07 | 53.25029 | 0.62310 | 5049 ft | 314 kts | 276° |
| 2026-04-22 12:07 | 53.25271 | 0.58673 | 5023 ft | 309 kts | 276° |
| 2026-04-22 12:08 | 53.25495 | 0.55333 | 5023 ft | 277 kts | 276° |
| 2026-04-22 12:08 | 53.25705 | 0.52155 | 5036 ft | 276 kts | 276° |
| 2026-04-22 12:08 | 53.25902 | 0.48961 | 5038 ft | 276 kts | 273° |
| 2026-04-22 12:08 | 53.25891 | 0.45768 | 5044 ft | 276 kts | 264° |
| 2026-04-22 12:09 | 53.25662 | 0.42583 | 5044 ft | 275 kts | 260° |
| 2026-04-22 12:09 | 53.25367 | 0.39414 | 5037 ft | 275 kts | 259° |
| 2026-04-22 12:09 | 53.25070 | 0.36261 | 5040 ft | 276 kts | 259° |
| 2026-04-22 12:09 | 53.24779 | 0.33111 | 5026 ft | 269 kts | 259° |
| 2026-04-22 12:10 | 53.24516 | 0.30208 | 5014 ft | 238 kts | 259° |
| 2026-04-22 12:10 | 53.24267 | 0.27511 | 5028 ft | 234 kts | 258° |
| 2026-04-22 12:10 | 53.24019 | 0.24823 | 5021 ft | 236 kts | 259° |
| 2026-04-22 12:10 | 53.23773 | 0.22142 | 5090 ft | 229 kts | 258° |
| 2026-04-22 12:11 | 53.23528 | 0.19479 | 4732 ft | 235 kts | 259° |
| 2026-04-22 12:11 | 53.23281 | 0.16782 | 4508 ft | 231 kts | 259° |
| 2026-04-22 12:11 | 53.23039 | 0.14166 | 4038 ft | 227 kts | 259° |
| 2026-04-22 12:11 | 53.22796 | 0.11560 | 3485 ft | 229 kts | 259° |
| 2026-04-22 12:12 | 53.22553 | 0.08955 | 3087 ft | 221 kts | 260° |
| 2026-04-22 12:12 | 53.22316 | 0.06422 | 3024 ft | 222 kts | 260° |
| 2026-04-22 12:12 | 53.22083 | 0.03950 | 3001 ft | 223 kts | 260° |
| 2026-04-22 12:12 | 53.21842 | 0.01392 | 3037 ft | 225 kts | 260° |
| 2026-04-22 12:13 | 53.21598 | -0.01197 | 3018 ft | 227 kts | 260° |
| 2026-04-22 12:13 | 53.21352 | -0.03800 | 3011 ft | 228 kts | 260° |
| 2026-04-22 12:13 | 53.21105 | -0.06393 | 3001 ft | 225 kts | 259° |
| 2026-04-22 12:13 | 53.20859 | -0.08956 | 3025 ft | 223 kts | 259° |
| 2026-04-22 12:14 | 53.20614 | -0.11518 | 3024 ft | 228 kts | 260° |
| 2026-04-22 12:14 | 53.20344 | -0.14340 | 3023 ft | 262 kts | 260° |
| 2026-04-22 12:14 | 53.20043 | -0.17467 | 3028 ft | 282 kts | 260° |
| 2026-04-22 12:14 | 53.19734 | -0.20666 | 3007 ft | 281 kts | 260° |
| 2026-04-22 12:15 | 53.19427 | -0.23859 | 3009 ft | 267 kts | 261° |
| 2026-04-22 12:15 | 53.19151 | -0.26743 | 3001 ft | 236 kts | 261° |
| 2026-04-22 12:15 | 53.18894 | -0.29393 | 2990 ft | 229 kts | 259° |
| 2026-04-22 12:15 | 53.18634 | -0.32053 | 3008 ft | 227 kts | 259° |
| 2026-04-22 12:16 | 53.18382 | -0.34639 | 3014 ft | 228 kts | 259° |
| 2026-04-22 12:16 | 53.18128 | -0.37229 | 3009 ft | 226 kts | 260° |
| 2026-04-22 12:16 | 53.18045 | -0.38080 | 3013 ft | 228 kts | 260° |